Time,TemperatureF,DewpointF,PressureIn,WindDirection,WindDirectionDegrees,WindSpeedMPH,WindSpeedGustMPH,Humidity,HourlyPrecipIn,Conditions,Clouds,dailyrainin,SoftwareType,DateUTC
2013-03-02 00:03:00,33.9,23.0,30.39,South,174,2.0,4.0,64,0.00,,,0.00,Wunderground v.1.15,2013-03-02 07:03:00,
2013-03-02 00:07:00,33.8,22.9,30.39,SW,224,3.0,4.0,64,0.00,,,0.00,Wunderground v.1.15,2013-03-02 07:07:00,
2013-03-02 00:11:00,33.4,22.9,30.39,WSW,253,4.0,5.0,65,0.00,,,0.00,Wunderground v.1.15,2013-03-02 07:11:00,
2013-03-02 00:12:00,33.4,22.9,30.39,WSW,256,6.0,6.0,65,0.00,,,0.00,Wunderground v.1.15,2013-03-02 07:12:00,
2013-03-02 00:13:00,33.4,22.9,30.39,WSW,255,6.0,6.0,65,0.00,,,0.00,Wunderground v.1.15,2013-03-02 07:13:00,
2013-03-02 00:17:00,33.2,22.7,30.39,SW,231,4.0,6.0,65,0.00,,,0.00,Wunderground v.1.15,2013-03-02 07:17:00,
2013-03-02 00:19:00,33.3,22.8,30.38,WSW,240,4.0,6.0,65,0.00,,,0.00,Wunderground v.1.15,2013-03-02 07:19:00,
2013-03-02 00:23:00,33.2,22.7,30.39,WSW,248,6.0,6.0,65,0.00,,,0.00,Wunderground v.1.15,2013-03-02 07:23:00,
2013-03-02 00:25:00,33.1,23.0,30.39,SW,222,4.0,6.0,66,0.00,,,0.00,Wunderground v.1.15,2013-03-02 07:25:00,
2013-03-02 00:28:00,33.2,24.1,30.39,SSW,193,5.0,6.0,69,0.00,,,0.00,Wunderground v.1.15,2013-03-02 07:28:00,
2013-03-02 00:33:00,33.7,24.3,30.39,WSW,243,2.0,5.0,68,0.00,,,0.00,Wunderground v.1.15,2013-03-02 07:33:00,
2013-03-02 00:36:00,33.6,24.9,30.39,SSW,211,6.0,6.0,70,0.00,,,0.00,Wunderground v.1.15,2013-03-02 07:36:00,
2013-03-02 00:39:00,33.4,24.7,30.39,SW,231,3.0,6.0,70,0.00,,,0.00,Wunderground v.1.15,2013-03-02 07:39:00,
2013-03-02 00:41:00,33.5,24.1,30.39,SW,221,3.0,5.0,68,0.00,,,0.00,Wunderground v.1.15,2013-03-02 07:41:00,
2013-03-02 00:45:00,33.7,23.9,30.39,WSW,248,4.0,5.0,67,0.00,,,0.00,Wunderground v.1.15,2013-03-02 07:45:00,
2013-03-02 00:46:00,33.7,23.5,30.39,WSW,249,4.0,5.0,66,0.00,,,0.00,Wunderground v.1.15,2013-03-02 07:46:00,
2013-03-02 00:47:00,33.7,23.2,30.39,WSW,254,3.0,5.0,65,0.00,,,0.00,Wunderground v.1.15,2013-03-02 07:47:00,
2013-03-02 00:53:00,33.6,23.4,30.39,West,264,4.0,5.0,66,0.00,,,0.00,Wunderground v.1.15,2013-03-02 07:53:00,
2013-03-02 00:54:00,33.7,23.5,30.39,West,276,3.0,5.0,66,0.00,,,0.00,Wunderground v.1.15,2013-03-02 07:54:00,
2013-03-02 00:57:00,34.1,23.2,30.38,SW,226,4.0,5.0,64,0.00,,,0.00,Wunderground v.1.15,2013-03-02 07:57:00,
2013-03-02 00:58:00,34.1,23.2,30.39,WSW,247,3.0,5.0,64,0.00,,,0.00,Wunderground v.1.15,2013-03-02 07:58:00,
2013-03-02 01:04:00,34.6,23.3,30.39,WSW,256,3.0,4.0,63,0.00,,,0.00,Wunderground v.1.15,2013-03-02 08:04:00,
2013-03-02 01:06:00,34.6,23.3,30.39,WSW,253,4.0,4.0,63,0.00,,,0.00,Wunderground v.1.15,2013-03-02 08:06:00,
2013-03-02 01:07:00,34.7,23.4,30.39,WSW,240,4.0,4.0,63,0.00,,,0.00,Wunderground v.1.15,2013-03-02 08:07:00,
2013-03-02 01:11:00,35.0,23.7,30.39,SW,225,3.0,4.0,63,0.00,,,0.00,Wunderground v.1.15,2013-03-02 08:11:00,
2013-03-02 01:12:00,35.1,23.8,30.39,SSW,212,4.0,4.0,63,0.00,,,0.00,Wunderground v.1.15,2013-03-02 08:12:00,
2013-03-02 01:15:00,35.1,24.1,30.38,SSW,207,3.0,4.0,64,0.00,,,0.00,Wunderground v.1.15,2013-03-02 08:15:00,
2013-03-02 01:16:00,35.1,24.1,30.39,WSW,248,2.0,4.0,64,0.00,,,0.00,Wunderground v.1.15,2013-03-02 08:16:00,
2013-03-02 01:22:00,34.7,24.1,30.39,SW,221,1.0,3.0,65,0.00,,,0.00,Wunderground v.1.15,2013-03-02 08:22:00,
2013-03-02 01:23:00,34.6,23.3,30.39,WSW,238,2.0,3.0,63,0.00,,,0.00,Wunderground v.1.15,2013-03-02 08:23:00,
2013-03-02 01:27:00,34.4,23.1,30.39,SSW,205,3.0,3.0,63,0.00,,,0.00,Wunderground v.1.15,2013-03-02 08:27:00,
2013-03-02 01:30:00,34.4,24.2,30.39,SW,233,2.0,2.0,66,0.00,,,0.00,Wunderground v.1.15,2013-03-02 08:30:00,
2013-03-02 01:34:00,33.9,23.0,30.39,West,259,5.0,5.0,64,0.00,,,0.00,Wunderground v.1.15,2013-03-02 08:34:00,
2013-03-02 01:37:00,33.8,22.9,30.39,WSW,257,5.0,5.0,64,0.00,,,0.00,Wunderground v.1.15,2013-03-02 08:37:00,
2013-03-02 01:40:00,33.9,22.6,30.39,SSW,198,2.0,4.0,63,0.00,,,0.00,Wunderground v.1.15,2013-03-02 08:40:00,
2013-03-02 01:45:00,33.9,22.6,30.39,West,259,4.0,5.0,63,0.00,,,0.00,Wunderground v.1.15,2013-03-02 08:45:00,
2013-03-02 01:51:00,33.3,22.4,30.38,West,259,6.0,7.0,64,0.00,,,0.00,Wunderground v.1.15,2013-03-02 08:51:00,
2013-03-02 01:52:00,33.2,22.3,30.38,WSW,253,4.0,7.0,64,0.00,,,0.00,Wunderground v.1.15,2013-03-02 08:52:00,
2013-03-02 01:53:00,33.2,22.7,30.38,WSW,240,7.0,7.0,65,0.00,,,0.00,Wunderground v.1.15,2013-03-02 08:53:00,
2013-03-02 01:57:00,32.9,22.4,30.38,WSW,249,3.0,7.0,65,0.00,,,0.00,Wunderground v.1.15,2013-03-02 08:57:00,
2013-03-02 01:59:00,32.9,22.8,30.38,West,274,4.0,7.0,66,0.00,,,0.00,Wunderground v.1.15,2013-03-02 08:59:00,
2013-03-02 02:01:00,33.1,22.6,30.38,WSW,249,3.0,5.0,65,0.00,,,0.00,Wunderground v.1.15,2013-03-02 09:01:00,
2013-03-02 02:02:00,33.3,22.8,30.38,SW,222,3.0,5.0,65,0.00,,,0.00,Wunderground v.1.15,2013-03-02 09:02:00,
2013-03-02 02:04:00,33.7,22.8,30.38,SW,231,1.0,5.0,64,0.00,,,0.00,Wunderground v.1.15,2013-03-02 09:04:00,
2013-03-02 02:06:00,34.1,22.8,30.38,SW,235,2.0,5.0,63,0.00,,,0.00,Wunderground v.1.15,2013-03-02 09:06:00,
2013-03-02 02:07:00,34.2,22.5,30.38,WSW,249,3.0,5.0,62,0.00,,,0.00,Wunderground v.1.15,2013-03-02 09:07:00,
2013-03-02 02:09:00,33.8,22.1,30.38,West,259,6.0,6.0,62,0.00,,,0.00,Wunderground v.1.15,2013-03-02 09:09:00,
2013-03-02 02:11:00,33.1,22.2,30.38,West,262,6.0,6.0,64,0.00,,,0.00,Wunderground v.1.15,2013-03-02 09:11:00,
2013-03-02 02:12:00,32.9,22.0,30.38,West,259,6.0,6.0,64,0.00,,,0.00,Wunderground v.1.15,2013-03-02 09:12:00,
2013-03-02 02:14:00,32.6,22.1,30.38,West,260,5.0,7.0,65,0.00,,,0.00,Wunderground v.1.15,2013-03-02 09:14:00,
2013-03-02 02:16:00,32.5,22.4,30.38,SW,233,4.0,7.0,66,0.00,,,0.00,Wunderground v.1.15,2013-03-02 09:16:00,
2013-03-02 02:17:00,32.4,21.9,30.38,WSW,250,5.0,7.0,65,0.00,,,0.00,Wunderground v.1.15,2013-03-02 09:17:00,
2013-03-02 02:19:00,32.2,22.1,30.38,West,262,4.0,7.0,66,0.00,,,0.00,Wunderground v.1.15,2013-03-02 09:19:00,
2013-03-02 02:21:00,31.9,22.2,30.38,SW,233,4.0,6.0,67,0.00,,,0.00,Wunderground v.1.15,2013-03-02 09:21:00,
2013-03-02 02:22:00,31.9,22.2,30.38,WSW,238,3.0,6.0,67,0.00,,,0.00,Wunderground v.1.15,2013-03-02 09:22:00,
2013-03-02 02:24:00,31.9,22.2,30.38,West,259,4.0,6.0,67,0.00,,,0.00,Wunderground v.1.15,2013-03-02 09:24:00,
2013-03-02 02:27:00,32.5,22.4,30.38,SW,222,3.0,6.0,66,0.00,,,0.00,Wunderground v.1.15,2013-03-02 09:27:00,
2013-03-02 02:29:00,32.5,22.0,30.38,SW,231,3.0,6.0,65,0.00,,,0.00,Wunderground v.1.15,2013-03-02 09:29:00,
2013-03-02 02:32:00,32.3,22.2,30.38,South,188,3.0,5.0,66,0.00,,,0.00,Wunderground v.1.15,2013-03-02 09:32:00,
2013-03-02 02:34:00,32.5,22.8,30.38,WSW,240,4.0,6.0,67,0.00,,,0.00,Wunderground v.1.15,2013-03-02 09:34:00,
2013-03-02 02:37:00,32.9,22.4,30.38,WSW,253,7.0,7.0,65,0.00,,,0.00,Wunderground v.1.15,2013-03-02 09:37:00,
2013-03-02 02:40:00,32.3,21.8,30.38,WSW,250,6.0,6.0,65,0.00,,,0.00,Wunderground v.1.15,2013-03-02 09:40:00,
2013-03-02 02:42:00,31.9,22.2,30.38,WSW,249,2.0,7.0,67,0.00,,,0.00,Wunderground v.1.15,2013-03-02 09:42:00,
2013-03-02 02:45:00,31.8,22.4,30.38,WSW,243,2.0,7.0,68,0.00,,,0.00,Wunderground v.1.15,2013-03-02 09:45:00,
2013-03-02 02:47:00,32.0,22.3,30.38,WSW,243,4.0,7.0,67,0.00,,,0.00,Wunderground v.1.15,2013-03-02 09:47:00,
2013-03-02 02:50:00,32.1,22.0,30.38,SW,229,3.0,3.0,66,0.00,,,0.00,Wunderground v.1.15,2013-03-02 09:50:00,
2013-03-02 02:52:00,32.3,22.2,30.38,WSW,257,4.0,4.0,66,0.00,,,0.00,Wunderground v.1.15,2013-03-02 09:52:00,
2013-03-02 02:55:00,32.5,22.4,30.38,South,181,3.0,4.0,66,0.00,,,0.00,Wunderground v.1.15,2013-03-02 09:55:00,
2013-03-02 02:57:00,32.5,22.8,30.37,SW,225,5.0,5.0,67,0.00,,,0.00,Wunderground v.1.15,2013-03-02 09:57:00,
2013-03-02 03:00:00,32.4,22.3,30.37,WSW,246,5.0,5.0,66,0.00,,,0.00,Wunderground v.1.15,2013-03-02 10:00:00,
2013-03-02 03:02:00,32.5,22.4,30.37,WSW,249,4.0,5.0,66,0.00,,,0.00,Wunderground v.1.15,2013-03-02 10:02:00,
2013-03-02 03:05:00,32.5,22.4,30.37,WSW,250,3.0,5.0,66,0.00,,,0.00,Wunderground v.1.15,2013-03-02 10:05:00,
2013-03-02 03:08:00,32.7,22.6,30.37,SSW,210,2.0,5.0,66,0.00,,,0.00,Wunderground v.1.15,2013-03-02 10:08:00,
2013-03-02 03:13:00,32.7,22.2,30.37,SW,214,3.0,5.0,65,0.00,,,0.00,Wunderground v.1.15,2013-03-02 10:13:00,
2013-03-02 03:14:00,32.9,22.4,30.37,WSW,249,5.0,5.0,65,0.00,,,0.00,Wunderground v.1.15,2013-03-02 10:14:00,
2013-03-02 03:15:00,33.0,22.5,30.37,WSW,253,4.0,5.0,65,0.00,,,0.00,Wunderground v.1.15,2013-03-02 10:15:00,
2013-03-02 03:18:00,33.1,22.2,30.37,West,269,5.0,6.0,64,0.00,,,0.00,Wunderground v.1.15,2013-03-02 10:18:00,
2013-03-02 03:19:00,32.9,22.0,30.37,West,270,4.0,6.0,64,0.00,,,0.00,Wunderground v.1.15,2013-03-02 10:19:00,
2013-03-02 03:20:00,32.8,22.0,30.37,WSW,257,3.0,4.0,64,0.00,,,0.00,Wunderground v.1.15,2013-03-02 10:20:00,
2013-03-02 03:23:00,32.5,22.4,30.37,WSW,238,4.0,5.0,66,0.00,,,0.00,Wunderground v.1.15,2013-03-02 10:23:00,
2013-03-02 03:24:00,32.6,22.5,30.37,South,172,3.0,5.0,66,0.00,,,0.00,Wunderground v.1.15,2013-03-02 10:24:00,
2013-03-02 03:25:00,32.7,22.6,30.37,SSW,195,5.0,5.0,66,0.00,,,0.00,Wunderground v.1.15,2013-03-02 10:25:00,
2013-03-02 03:28:00,32.7,22.6,30.37,West,265,4.0,6.0,66,0.00,,,0.00,Wunderground v.1.15,2013-03-02 10:28:00,
2013-03-02 03:29:00,32.4,21.9,30.37,WSW,257,4.0,6.0,65,0.00,,,0.00,Wunderground v.1.15,2013-03-02 10:29:00,
2013-03-02 03:30:00,32.3,21.8,30.37,WSW,250,4.0,4.0,65,0.00,,,0.00,Wunderground v.1.15,2013-03-02 10:30:00,
2013-03-02 03:33:00,32.0,21.9,30.37,WSW,248,4.0,6.0,66,0.00,,,0.00,Wunderground v.1.15,2013-03-02 10:33:00,
2013-03-02 03:35:00,32.0,21.9,30.37,SSW,199,4.0,6.0,66,0.00,,,0.00,Wunderground v.1.15,2013-03-02 10:35:00,
2013-03-02 03:36:00,32.0,22.6,30.37,SSW,210,4.0,6.0,68,0.00,,,0.00,Wunderground v.1.15,2013-03-02 10:36:00,
2013-03-02 03:39:00,32.2,22.5,30.37,SW,224,4.0,6.0,67,0.00,,,0.00,Wunderground v.1.15,2013-03-02 10:39:00,
2013-03-02 03:41:00,32.3,22.2,30.37,WSW,245,4.0,6.0,66,0.00,,,0.00,Wunderground v.1.15,2013-03-02 10:41:00,
2013-03-02 03:44:00,32.2,22.5,30.37,SW,217,4.0,6.0,67,0.00,,,0.00,Wunderground v.1.15,2013-03-02 10:44:00,
2013-03-02 03:46:00,32.3,22.6,30.37,SSW,205,4.0,6.0,67,0.00,,,0.00,Wunderground v.1.15,2013-03-02 10:46:00,
2013-03-02 03:49:00,32.2,22.8,30.37,SW,221,3.0,6.0,68,0.00,,,0.00,Wunderground v.1.15,2013-03-02 10:49:00,
2013-03-02 03:51:00,32.4,23.0,30.37,SSW,212,4.0,5.0,68,0.00,,,0.00,Wunderground v.1.15,2013-03-02 10:51:00,
2013-03-02 03:54:00,32.4,23.0,30.38,WSW,246,4.0,5.0,68,0.00,,,0.00,Wunderground v.1.15,2013-03-02 10:54:00,
2013-03-02 03:55:00,32.4,23.0,30.38,SW,225,3.0,5.0,68,0.00,,,0.00,Wunderground v.1.15,2013-03-02 10:55:00,
2013-03-02 03:56:00,32.4,22.3,30.38,WSW,240,4.0,5.0,66,0.00,,,0.00,Wunderground v.1.15,2013-03-02 10:56:00,
2013-03-02 03:59:00,31.8,22.1,30.38,WSW,248,3.0,6.0,67,0.00,,,0.00,Wunderground v.1.15,2013-03-02 10:59:00,
2013-03-02 04:00:00,31.8,22.1,30.38,SW,233,5.0,5.0,67,0.00,,,0.00,Wunderground v.1.15,2013-03-02 11:00:00,
2013-03-02 04:01:00,31.7,22.0,30.38,West,265,6.0,6.0,67,0.00,,,0.00,Wunderground v.1.15,2013-03-02 11:01:00,
2013-03-02 04:05:00,32.0,23.3,30.38,SSW,213,4.0,6.0,70,0.00,,,0.00,Wunderground v.1.15,2013-03-02 11:05:00,
2013-03-02 04:06:00,32.2,22.8,30.38,WSW,255,7.0,7.0,68,0.00,,,0.00,Wunderground v.1.15,2013-03-02 11:06:00,
2013-03-02 04:10:00,32.0,22.3,30.38,SW,231,6.0,6.0,67,0.00,,,0.00,Wunderground v.1.15,2013-03-02 11:10:00,
2013-03-02 04:11:00,32.0,22.3,30.38,SW,217,6.0,6.0,67,0.00,,,0.00,Wunderground v.1.15,2013-03-02 11:11:00,
2013-03-02 04:12:00,32.1,22.4,30.38,SSW,205,3.0,6.0,67,0.00,,,0.00,Wunderground v.1.15,2013-03-02 11:12:00,
2013-03-02 04:15:00,32.5,22.8,30.38,SSW,210,3.0,6.0,67,0.00,,,0.00,Wunderground v.1.15,2013-03-02 11:15:00,
2013-03-02 04:16:00,32.5,22.4,30.38,SSW,210,2.0,6.0,66,0.00,,,0.00,Wunderground v.1.15,2013-03-02 11:16:00,
2013-03-02 04:17:00,32.7,22.6,30.38,WSW,249,4.0,6.0,66,0.00,,,0.00,Wunderground v.1.15,2013-03-02 11:17:00,
2013-03-02 04:20:00,32.5,22.4,30.37,WSW,249,4.0,5.0,66,0.00,,,0.00,Wunderground v.1.15,2013-03-02 11:20:00,
2013-03-02 04:21:00,32.4,22.3,30.37,SW,219,3.0,5.0,66,0.00,,,0.00,Wunderground v.1.15,2013-03-02 11:21:00,
2013-03-02 04:22:00,32.4,23.0,30.37,South,187,4.0,6.0,68,0.00,,,0.00,Wunderground v.1.15,2013-03-02 11:22:00,
2013-03-02 04:23:00,32.4,23.4,30.38,WSW,240,4.0,6.0,69,0.00,,,0.00,Wunderground v.1.15,2013-03-02 11:23:00,
2013-03-02 04:25:00,32.5,22.8,30.38,SW,219,6.0,6.0,67,0.00,,,0.00,Wunderground v.1.15,2013-03-02 11:25:00,
2013-03-02 04:26:00,32.6,22.8,30.38,SW,221,4.0,6.0,67,0.00,,,0.00,Wunderground v.1.15,2013-03-02 11:26:00,
2013-03-02 04:27:00,32.9,22.8,30.38,WSW,246,3.0,6.0,66,0.00,,,0.00,Wunderground v.1.15,2013-03-02 11:27:00,
2013-03-02 04:28:00,33.1,23.0,30.37,WSW,249,5.0,6.0,66,0.00,,,0.00,Wunderground v.1.15,2013-03-02 11:28:00,
2013-03-02 04:30:00,33.7,23.9,30.38,SSW,212,5.0,9.0,67,0.00,,,0.00,Wunderground v.1.15,2013-03-02 11:30:00,
2013-03-02 04:31:00,33.7,24.3,30.38,SW,228,3.0,9.0,68,0.00,,,0.00,Wunderground v.1.15,2013-03-02 11:31:00,
2013-03-02 04:32:00,33.9,23.7,30.38,SW,221,2.0,9.0,66,0.00,,,0.00,Wunderground v.1.15,2013-03-02 11:32:00,
2013-03-02 04:33:00,34.1,23.6,30.38,West,259,1.0,9.0,65,0.00,,,0.00,Wunderground v.1.15,2013-03-02 11:33:00,
2013-03-02 04:35:00,34.4,23.1,30.38,SW,231,3.0,9.0,63,0.00,,,0.00,Wunderground v.1.15,2013-03-02 11:35:00,
2013-03-02 04:37:00,34.4,23.1,30.38,SW,214,2.0,9.0,63,0.00,,,0.00,Wunderground v.1.15,2013-03-02 11:37:00,
2013-03-02 04:38:00,34.4,23.1,30.38,SSW,200,5.0,9.0,63,0.00,,,0.00,Wunderground v.1.15,2013-03-02 11:38:00,
2013-03-02 04:41:00,34.3,23.4,30.38,SSW,202,3.0,5.0,64,0.00,,,0.00,Wunderground v.1.15,2013-03-02 11:41:00,
2013-03-02 04:42:00,34.1,23.6,30.38,SSW,197,7.0,7.0,65,0.00,,,0.00,Wunderground v.1.15,2013-03-02 11:42:00,
2013-03-02 04:43:00,34.0,23.8,30.38,SSW,210,6.0,7.0,66,0.00,,,0.00,Wunderground v.1.15,2013-03-02 11:43:00,
2013-03-02 04:46:00,33.9,23.4,30.38,West,266,5.0,7.0,65,0.00,,,0.00,Wunderground v.1.15,2013-03-02 11:46:00,
2013-03-02 04:47:00,33.9,23.0,30.38,West,267,4.0,7.0,64,0.00,,,0.00,Wunderground v.1.15,2013-03-02 11:47:00,
2013-03-02 04:48:00,34.0,23.1,30.38,WSW,239,4.0,7.0,64,0.00,,,0.00,Wunderground v.1.15,2013-03-02 11:48:00,
2013-03-02 04:49:00,34.1,22.8,30.38,South,172,2.0,7.0,63,0.00,,,0.00,Wunderground v.1.15,2013-03-02 11:49:00,
2013-03-02 04:51:00,34.4,23.1,30.37,WSW,256,5.0,7.0,63,0.00,,,0.00,Wunderground v.1.15,2013-03-02 11:51:00,
2013-03-02 04:53:00,34.7,23.0,30.37,SW,228,5.0,8.0,62,0.00,,,0.00,Wunderground v.1.15,2013-03-02 11:53:00,
2013-03-02 04:54:00,35.0,23.3,30.37,WSW,255,3.0,8.0,62,0.00,,,0.00,Wunderground v.1.15,2013-03-02 11:54:00,
2013-03-02 04:56:00,34.9,22.8,30.38,SW,225,2.0,8.0,61,0.00,,,0.00,Wunderground v.1.15,2013-03-02 11:56:00,
2013-03-02 04:58:00,34.7,22.6,30.38,West,264,3.0,8.0,61,0.00,,,0.00,Wunderground v.1.15,2013-03-02 11:58:00,
2013-03-02 04:59:00,34.6,22.5,30.38,WNW,283,1.0,8.0,61,0.00,,,0.00,Wunderground v.1.15,2013-03-02 11:59:00,
2013-03-02 05:01:00,34.4,23.5,30.37,South,180,5.0,6.0,64,0.00,,,0.00,Wunderground v.1.15,2013-03-02 12:01:00,
2013-03-02 05:03:00,34.3,23.4,30.37,South,184,4.0,7.0,64,0.00,,,0.00,Wunderground v.1.15,2013-03-02 12:03:00,
2013-03-02 05:04:00,34.3,23.7,30.37,South,190,3.0,7.0,65,0.00,,,0.00,Wunderground v.1.15,2013-03-02 12:04:00,
2013-03-02 05:07:00,34.2,22.9,30.37,West,259,1.0,7.0,63,0.00,,,0.00,Wunderground v.1.15,2013-03-02 12:07:00,
2013-03-02 05:08:00,34.1,22.8,30.37,West,260,2.0,7.0,63,0.00,,,0.00,Wunderground v.1.15,2013-03-02 12:08:00,
2013-03-02 05:09:00,34.0,22.7,30.37,West,263,1.0,7.0,63,0.00,,,0.00,Wunderground v.1.15,2013-03-02 12:09:00,
2013-03-02 05:12:00,33.6,22.7,30.37,WSW,252,2.0,4.0,64,0.00,,,0.00,Wunderground v.1.15,2013-03-02 12:12:00,
2013-03-02 05:13:00,33.5,23.0,30.37,WSW,246,4.0,4.0,65,0.00,,,0.00,Wunderground v.1.15,2013-03-02 12:13:00,
2013-03-02 05:14:00,33.5,23.0,30.37,West,259,7.0,7.0,65,0.00,,,0.00,Wunderground v.1.15,2013-03-02 12:14:00,
2013-03-02 05:17:00,33.9,23.0,30.37,SW,219,4.0,7.0,64,0.00,,,0.00,Wunderground v.1.15,2013-03-02 12:17:00,
2013-03-02 05:19:00,34.5,22.8,30.37,South,180,4.0,7.0,62,0.00,,,0.00,Wunderground v.1.15,2013-03-02 12:19:00,
2013-03-02 05:22:00,34.5,22.8,30.37,WSW,248,1.0,5.0,62,0.00,,,0.00,Wunderground v.1.15,2013-03-02 12:22:00,
2013-03-02 05:24:00,34.4,22.7,30.38,West,259,3.0,5.0,62,0.00,,,0.00,Wunderground v.1.15,2013-03-02 12:24:00,
2013-03-02 05:25:00,34.3,22.6,30.38,West,277,5.0,5.0,62,0.00,,,0.00,Wunderground v.1.15,2013-03-02 12:25:00,
2013-03-02 05:27:00,34.2,22.9,30.38,SW,236,2.0,5.0,63,0.00,,,0.00,Wunderground v.1.15,2013-03-02 12:27:00,
2013-03-02 05:29:00,34.0,23.1,30.38,SSW,200,1.0,5.0,64,0.00,,,0.00,Wunderground v.1.15,2013-03-02 12:29:00,
2013-03-02 05:30:00,33.9,23.0,30.38,SSW,204,4.0,4.0,64,0.00,,,0.00,Wunderground v.1.15,2013-03-02 12:30:00,
2013-03-02 05:32:00,33.6,23.1,30.38,WSW,246,6.0,6.0,65,0.00,,,0.00,Wunderground v.1.15,2013-03-02 12:32:00,
2013-03-02 05:34:00,33.3,22.4,30.38,West,262,6.0,6.0,64,0.00,,,0.00,Wunderground v.1.15,2013-03-02 12:34:00,
2013-03-02 05:35:00,33.0,22.1,30.38,WSW,250,3.0,6.0,64,0.00,,,0.00,Wunderground v.1.15,2013-03-02 12:35:00,
2013-03-02 05:37:00,32.6,22.1,30.38,WSW,253,5.0,6.0,65,0.00,,,0.00,Wunderground v.1.15,2013-03-02 12:37:00,
2013-03-02 05:39:00,32.5,22.4,30.38,South,183,3.0,6.0,66,0.00,,,0.00,Wunderground v.1.15,2013-03-02 12:39:00,
2013-03-02 05:40:00,32.6,22.8,30.38,WSW,250,3.0,5.0,67,0.00,,,0.00,Wunderground v.1.15,2013-03-02 12:40:00,
2013-03-02 05:42:00,32.4,22.3,30.38,SW,228,2.0,5.0,66,0.00,,,0.00,Wunderground v.1.15,2013-03-02 12:42:00,
2013-03-02 05:44:00,32.4,22.7,30.38,South,191,3.0,5.0,67,0.00,,,0.00,Wunderground v.1.15,2013-03-02 12:44:00,
2013-03-02 05:45:00,32.4,23.0,30.38,SSW,194,2.0,5.0,68,0.00,,,0.00,Wunderground v.1.15,2013-03-02 12:45:00,
2013-03-02 05:47:00,32.7,23.3,30.38,WSW,252,2.0,5.0,68,0.00,,,0.00,Wunderground v.1.15,2013-03-02 12:47:00,
2013-03-02 05:50:00,32.8,23.0,30.38,WSW,254,2.0,2.0,67,0.00,,,0.00,Wunderground v.1.15,2013-03-02 12:50:00,
2013-03-02 05:51:00,32.8,23.0,30.38,SE,131,2.0,2.0,67,0.00,,,0.00,Wunderground v.1.15,2013-03-02 12:51:00,
2013-03-02 05:52:00,33.0,23.2,30.38,SSE,162,4.0,5.0,67,0.00,,,0.00,Wunderground v.1.15,2013-03-02 12:52:00,
2013-03-02 05:55:00,33.4,23.6,30.38,West,270,3.0,5.0,67,0.00,,,0.00,Wunderground v.1.15,2013-03-02 12:55:00,
2013-03-02 05:56:00,33.7,23.5,30.38,West,271,3.0,5.0,66,0.00,,,0.00,Wunderground v.1.15,2013-03-02 12:56:00,
2013-03-02 05:58:00,33.9,23.0,30.38,North,358,1.0,5.0,64,0.00,,,0.00,Wunderground v.1.15,2013-03-02 12:58:00,
2013-03-02 06:00:00,33.7,22.8,30.38,SW,214,1.0,2.0,64,0.00,,,0.00,Wunderground v.1.15,2013-03-02 13:00:00,
2013-03-02 06:01:00,33.7,23.2,30.38,SSW,212,2.0,2.0,65,0.00,,,0.00,Wunderground v.1.15,2013-03-02 13:01:00,
2013-03-02 06:03:00,33.5,23.0,30.38,SSE,166,3.0,4.0,65,0.00,,,0.00,Wunderground v.1.15,2013-03-02 13:03:00,
2013-03-02 06:05:00,33.2,23.1,30.38,SW,218,3.0,4.0,66,0.00,,,0.00,Wunderground v.1.15,2013-03-02 13:05:00,
2013-03-02 06:06:00,33.1,23.0,30.38,WSW,256,2.0,4.0,66,0.00,,,0.00,Wunderground v.1.15,2013-03-02 13:06:00,
2013-03-02 06:08:00,33.2,23.1,30.38,SW,233,1.0,4.0,66,0.00,,,0.00,Wunderground v.1.15,2013-03-02 13:08:00,
2013-03-02 06:10:00,33.0,22.9,30.39,West,266,3.0,3.0,66,0.00,,,0.00,Wunderground v.1.15,2013-03-02 13:10:00,
2013-03-02 06:11:00,32.8,22.7,30.39,West,260,2.0,4.0,66,0.00,,,0.00,Wunderground v.1.15,2013-03-02 13:11:00,
2013-03-02 06:12:00,32.7,22.6,30.39,WSW,243,2.0,4.0,66,0.00,,,0.00,Wunderground v.1.15,2013-03-02 13:12:00,
2013-03-02 06:13:00,32.6,22.5,30.38,SE,139,0.0,4.0,66,0.00,,,0.00,Wunderground v.1.15,2013-03-02 13:13:00,
2013-03-02 06:15:00,32.4,23.0,30.38,West,269,4.0,4.0,68,0.00,,,0.00,Wunderground v.1.15,2013-03-02 13:15:00,
2013-03-02 06:16:00,32.5,23.1,30.39,West,259,4.0,5.0,68,0.00,,,0.00,Wunderground v.1.15,2013-03-02 13:16:00,
2013-03-02 06:17:00,32.7,22.9,30.39,West,259,6.0,6.0,67,0.00,,,0.00,Wunderground v.1.15,2013-03-02 13:17:00,
2013-03-02 06:18:00,32.8,22.7,30.38,West,262,6.0,7.0,66,0.00,,,0.00,Wunderground v.1.15,2013-03-02 13:18:00,
2013-03-02 06:20:00,32.8,22.7,30.38,West,260,7.0,7.0,66,0.00,,,0.00,Wunderground v.1.15,2013-03-02 13:20:00,
2013-03-02 06:21:00,32.8,22.7,30.38,West,266,6.0,7.0,66,0.00,,,0.00,Wunderground v.1.15,2013-03-02 13:21:00,
2013-03-02 06:22:00,32.9,22.8,30.38,West,260,6.0,7.0,66,0.00,,,0.00,Wunderground v.1.15,2013-03-02 13:22:00,
2013-03-02 06:23:00,32.9,22.8,30.38,West,259,4.0,7.0,66,0.00,,,0.00,Wunderground v.1.15,2013-03-02 13:23:00,
2013-03-02 06:26:00,33.0,22.9,30.38,West,260,5.0,7.0,66,0.00,,,0.00,Wunderground v.1.15,2013-03-02 13:26:00,
2013-03-02 06:27:00,32.8,22.7,30.39,WSW,238,2.0,7.0,66,0.00,,,0.00,Wunderground v.1.15,2013-03-02 13:27:00,
2013-03-02 06:29:00,32.7,22.6,30.39,WSW,238,0.0,7.0,66,0.00,,,0.00,Wunderground v.1.15,2013-03-02 13:29:00,
2013-03-02 06:31:00,32.7,22.9,30.39,WSW,246,3.0,4.0,67,0.00,,,0.00,Wunderground v.1.15,2013-03-02 13:31:00,
2013-03-02 06:32:00,32.8,22.7,30.39,WSW,253,2.0,4.0,66,0.00,,,0.00,Wunderground v.1.15,2013-03-02 13:32:00,
2013-03-02 06:33:00,32.8,22.7,30.39,WSW,250,3.0,4.0,66,0.00,,,0.00,Wunderground v.1.15,2013-03-02 13:33:00,
2013-03-02 06:35:00,33.1,23.0,30.39,SW,225,3.0,4.0,66,0.00,,,0.00,Wunderground v.1.15,2013-03-02 13:35:00,
2013-03-02 06:37:00,33.5,23.0,30.39,WSW,249,4.0,4.0,65,0.00,,,0.00,Wunderground v.1.15,2013-03-02 13:37:00,
2013-03-02 06:38:00,33.6,22.7,30.39,WSW,247,6.0,6.0,64,0.00,,,0.00,Wunderground v.1.15,2013-03-02 13:38:00,
2013-03-02 06:41:00,33.3,22.4,30.39,WSW,240,6.0,6.0,64,0.00,,,0.00,Wunderground v.1.15,2013-03-02 13:41:00,
2013-03-02 06:42:00,33.5,23.0,30.39,WSW,253,4.0,6.0,65,0.00,,,0.00,Wunderground v.1.15,2013-03-02 13:42:00,
2013-03-02 06:43:00,33.6,23.1,30.39,SW,222,5.0,6.0,65,0.00,,,0.00,Wunderground v.1.15,2013-03-02 13:43:00,
2013-03-02 06:46:00,33.7,22.8,30.39,WSW,243,4.0,6.0,64,0.00,,,0.00,Wunderground v.1.15,2013-03-02 13:46:00,
2013-03-02 06:47:00,33.6,22.7,30.39,West,259,4.0,6.0,64,0.00,,,0.00,Wunderground v.1.15,2013-03-02 13:47:00,
2013-03-02 06:48:00,33.6,22.7,30.39,West,259,4.0,6.0,64,0.00,,,0.00,Wunderground v.1.15,2013-03-02 13:48:00,
2013-03-02 06:51:00,33.2,22.7,30.39,West,264,4.0,6.0,65,0.00,,,0.00,Wunderground v.1.15,2013-03-02 13:51:00,
2013-03-02 06:52:00,32.8,22.3,30.39,West,262,4.0,6.0,65,0.00,,,0.00,Wunderground v.1.15,2013-03-02 13:52:00,
2013-03-02 06:53:00,32.8,22.7,30.39,West,269,5.0,6.0,66,0.00,,,0.00,Wunderground v.1.15,2013-03-02 13:53:00,
2013-03-02 06:56:00,33.4,23.3,30.39,WSW,250,3.0,6.0,66,0.00,,,0.00,Wunderground v.1.15,2013-03-02 13:56:00,
2013-03-02 06:58:00,33.7,23.5,30.39,SSW,197,2.0,6.0,66,0.00,,,0.00,Wunderground v.1.15,2013-03-02 13:58:00,
2013-03-02 06:59:00,33.7,23.5,30.39,SSE,154,2.0,6.0,66,0.00,,,0.00,Wunderground v.1.15,2013-03-02 13:59:00,
2013-03-02 07:02:00,33.7,23.2,30.39,WSW,249,2.0,4.0,65,0.00,,,0.00,Wunderground v.1.15,2013-03-02 14:02:00,
2013-03-02 07:04:00,33.6,23.4,30.38,SSW,207,1.0,4.0,66,0.00,,,0.00,Wunderground v.1.15,2013-03-02 14:04:00,
2013-03-02 07:07:00,33.9,23.4,30.38,South,181,2.0,5.0,65,0.00,,,0.00,Wunderground v.1.15,2013-03-02 14:07:00,
2013-03-02 07:09:00,34.3,23.7,30.38,SSE,158,3.0,5.0,65,0.00,,,0.00,Wunderground v.1.15,2013-03-02 14:09:00,
2013-03-02 07:10:00,34.4,23.8,30.38,SSW,205,2.0,2.0,65,0.00,,,0.00,Wunderground v.1.15,2013-03-02 14:10:00,
2013-03-02 07:12:00,34.6,24.0,30.38,West,259,2.0,5.0,65,0.00,,,0.00,Wunderground v.1.15,2013-03-02 14:12:00,
2013-03-02 07:14:00,35.0,24.4,30.38,WSW,243,2.0,5.0,65,0.00,,,0.00,Wunderground v.1.15,2013-03-02 14:14:00,
2013-03-02 07:15:00,35.1,24.5,30.38,WNW,285,2.0,5.0,65,0.00,,,0.00,Wunderground v.1.15,2013-03-02 14:15:00,
2013-03-02 07:18:00,35.2,23.9,30.38,SW,231,3.0,5.0,63,0.00,,,0.00,Wunderground v.1.15,2013-03-02 14:18:00,
2013-03-02 07:19:00,35.3,24.0,30.38,West,267,2.0,5.0,63,0.00,,,0.00,Wunderground v.1.15,2013-03-02 14:19:00,
2013-03-02 07:20:00,35.3,24.0,30.38,WSW,257,2.0,2.0,63,0.00,,,0.00,Wunderground v.1.15,2013-03-02 14:20:00,
2013-03-02 07:23:00,35.9,23.7,30.38,SW,231,4.0,5.0,61,0.00,,,0.00,Wunderground v.1.15,2013-03-02 14:23:00,
2013-03-02 07:24:00,36.1,24.3,30.38,WSW,252,5.0,5.0,62,0.00,,,0.00,Wunderground v.1.15,2013-03-02 14:24:00,
2013-03-02 07:25:00,36.1,24.3,30.38,WSW,250,4.0,5.0,62,0.00,,,0.00,Wunderground v.1.15,2013-03-02 14:25:00,
2013-03-02 07:28:00,36.4,23.8,30.38,WSW,253,4.0,6.0,60,0.00,,,0.00,Wunderground v.1.15,2013-03-02 14:28:00,
2013-03-02 07:29:00,36.6,24.0,30.38,WSW,254,3.0,6.0,60,0.00,,,0.00,Wunderground v.1.15,2013-03-02 14:29:00,
2013-03-02 07:30:00,36.7,24.1,30.38,WSW,240,3.0,4.0,60,0.00,,,0.00,Wunderground v.1.15,2013-03-02 14:30:00,
2013-03-02 07:33:00,36.9,23.9,30.38,SW,219,2.0,6.0,59,0.00,,,0.00,Wunderground v.1.15,2013-03-02 14:33:00,
2013-03-02 07:34:00,36.9,23.9,30.38,WSW,248,2.0,6.0,59,0.00,,,0.00,Wunderground v.1.15,2013-03-02 14:34:00,
2013-03-02 07:35:00,36.9,23.9,30.38,WSW,253,3.0,6.0,59,0.00,,,0.00,Wunderground v.1.15,2013-03-02 14:35:00,
2013-03-02 07:36:00,37.0,24.0,30.38,SSE,153,2.0,6.0,59,0.00,,,0.00,Wunderground v.1.15,2013-03-02 14:36:00,
2013-03-02 07:38:00,37.2,24.6,30.38,SW,214,2.0,6.0,60,0.00,,,0.00,Wunderground v.1.15,2013-03-02 14:38:00,
2013-03-02 07:39:00,37.3,24.7,30.38,SSW,208,3.0,6.0,60,0.00,,,0.00,Wunderground v.1.15,2013-03-02 14:39:00,
2013-03-02 07:40:00,37.4,24.4,30.38,WSW,240,4.0,4.0,59,0.00,,,0.00,Wunderground v.1.15,2013-03-02 14:40:00,
2013-03-02 07:41:00,37.4,24.4,30.38,WSW,243,4.0,4.0,59,0.00,,,0.00,Wunderground v.1.15,2013-03-02 14:41:00,
2013-03-02 07:43:00,37.7,24.6,30.38,WSW,252,3.0,4.0,59,0.00,,,0.00,Wunderground v.1.15,2013-03-02 14:43:00,
2013-03-02 07:45:00,37.7,24.6,30.38,WSW,245,3.0,4.0,59,0.00,,,0.00,Wunderground v.1.15,2013-03-02 14:45:00,
2013-03-02 07:46:00,37.7,24.6,30.38,WSW,255,1.0,4.0,59,0.00,,,0.00,Wunderground v.1.15,2013-03-02 14:46:00,
2013-03-02 07:48:00,37.6,24.6,30.38,WSW,256,0.0,4.0,59,0.00,,,0.00,Wunderground v.1.15,2013-03-02 14:48:00,
2013-03-02 07:50:00,37.5,24.9,30.38,WSW,256,0.0,2.0,60,0.00,,,0.00,Wunderground v.1.15,2013-03-02 14:50:00,
2013-03-02 07:51:00,37.4,24.8,30.38,WSW,256,0.0,2.0,60,0.00,,,0.00,Wunderground v.1.15,2013-03-02 14:51:00,
2013-03-02 07:54:00,37.3,24.3,30.38,WSW,256,0.0,2.0,59,0.00,,,0.00,Wunderground v.1.15,2013-03-02 14:54:00,
2013-03-02 07:55:00,37.3,24.7,30.38,WSW,256,0.0,2.0,60,0.00,,,0.00,Wunderground v.1.15,2013-03-02 14:55:00,
2013-03-02 07:56:00,37.3,24.7,30.38,WSW,256,0.0,2.0,60,0.00,,,0.00,Wunderground v.1.15,2013-03-02 14:56:00,
2013-03-02 07:59:00,37.4,24.4,30.38,SSW,213,1.0,2.0,59,0.00,,,0.00,Wunderground v.1.15,2013-03-02 14:59:00,
2013-03-02 08:00:00,37.4,24.8,30.38,SSW,200,2.0,2.0,60,0.00,,,0.00,Wunderground v.1.15,2013-03-02 15:00:00,
2013-03-02 08:01:00,37.5,24.9,30.38,South,177,2.0,2.0,60,0.00,,,0.00,Wunderground v.1.15,2013-03-02 15:01:00,
2013-03-02 08:04:00,38.0,24.9,30.38,SE,130,2.0,2.0,59,0.00,,,0.00,Wunderground v.1.15,2013-03-02 15:04:00,
2013-03-02 08:05:00,38.3,24.8,30.38,SE,131,1.0,2.0,58,0.00,,,0.00,Wunderground v.1.15,2013-03-02 15:05:00,
2013-03-02 08:06:00,38.4,24.9,30.37,SE,131,1.0,2.0,58,0.00,,,0.00,Wunderground v.1.15,2013-03-02 15:06:00,
2013-03-02 08:07:00,38.4,24.9,30.37,SE,131,1.0,2.0,58,0.00,,,0.00,Wunderground v.1.15,2013-03-02 15:07:00,
2013-03-02 08:09:00,38.9,24.5,30.38,SSW,205,2.0,2.0,56,0.00,,,0.00,Wunderground v.1.15,2013-03-02 15:09:00,
2013-03-02 08:10:00,39.1,24.7,30.38,SSW,204,2.0,2.0,56,0.00,,,0.00,Wunderground v.1.15,2013-03-02 15:10:00,
2013-03-02 08:11:00,39.2,24.8,30.38,SSW,205,0.0,2.0,56,0.00,,,0.00,Wunderground v.1.15,2013-03-02 15:11:00,
2013-03-02 08:12:00,39.2,24.8,30.38,SSE,153,1.0,2.0,56,0.00,,,0.00,Wunderground v.1.15,2013-03-02 15:12:00,
2013-03-02 08:14:00,39.7,24.8,30.38,SSE,150,0.0,2.0,55,0.00,,,0.00,Wunderground v.1.15,2013-03-02 15:14:00,
2013-03-02 08:15:00,39.9,25.5,30.38,SSE,150,0.0,2.0,56,0.00,,,0.00,Wunderground v.1.15,2013-03-02 15:15:00,
2013-03-02 08:16:00,40.1,25.2,30.38,SSE,150,0.0,2.0,55,0.00,,,0.00,Wunderground v.1.15,2013-03-02 15:16:00,
2013-03-02 08:17:00,40.2,25.3,30.38,SSW,196,0.0,2.0,55,0.00,,,0.00,Wunderground v.1.15,2013-03-02 15:17:00,
2013-03-02 08:20:00,40.6,24.8,30.38,SSW,195,0.0,1.0,53,0.00,,,0.00,Wunderground v.1.15,2013-03-02 15:20:00,
2013-03-02 08:22:00,40.8,24.5,30.38,SSW,195,0.0,1.0,52,0.00,,,0.00,Wunderground v.1.15,2013-03-02 15:22:00,
2013-03-02 08:26:00,41.8,25.4,30.37,SSW,195,0.0,1.0,52,0.00,,,0.00,Wunderground v.1.15,2013-03-02 15:26:00,
2013-03-02 08:27:00,42.5,25.6,30.37,SSW,195,0.0,1.0,51,0.00,,,0.00,Wunderground v.1.15,2013-03-02 15:27:00,
2013-03-02 08:30:00,44.2,26.7,30.37,SSW,195,0.0,0.0,50,0.00,,,0.00,Wunderground v.1.15,2013-03-02 15:30:00,
2013-03-02 08:31:00,44.6,26.6,30.37,SSW,195,0.0,0.0,49,0.00,,,0.00,Wunderground v.1.15,2013-03-02 15:31:00,
2013-03-02 08:32:00,45.2,26.1,30.37,SSW,195,0.0,0.0,47,0.00,,,0.00,Wunderground v.1.15,2013-03-02 15:32:00,
2013-03-02 08:33:00,45.5,25.9,30.37,SSW,195,0.0,0.0,46,0.00,,,0.00,Wunderground v.1.15,2013-03-02 15:33:00,
2013-03-02 08:36:00,46.2,26.0,30.37,SE,134,0.0,0.0,45,0.00,,,0.00,Wunderground v.1.15,2013-03-02 15:36:00,
2013-03-02 08:37:00,46.2,25.5,30.37,SE,134,0.0,0.0,44,0.00,,,0.00,Wunderground v.1.15,2013-03-02 15:37:00,
2013-03-02 08:38:00,46.2,26.0,30.37,SE,134,0.0,0.0,45,0.00,,,0.00,Wunderground v.1.15,2013-03-02 15:38:00,
2013-03-02 08:41:00,45.9,25.7,30.37,NE,45,4.0,5.0,45,0.00,,,0.00,Wunderground v.1.15,2013-03-02 15:41:00,
2013-03-02 08:42:00,45.3,25.7,30.37,NE,49,3.0,5.0,46,0.00,,,0.00,Wunderground v.1.15,2013-03-02 15:42:00,
2013-03-02 08:43:00,45.1,25.5,30.37,NE,49,2.0,5.0,46,0.00,,,0.00,Wunderground v.1.15,2013-03-02 15:43:00,
2013-03-02 08:46:00,44.3,25.8,30.37,NE,51,0.0,5.0,48,0.00,,,0.00,Wunderground v.1.15,2013-03-02 15:46:00,
2013-03-02 08:47:00,44.2,26.2,30.37,NE,53,0.0,5.0,49,0.00,,,0.00,Wunderground v.1.15,2013-03-02 15:47:00,
2013-03-02 08:48:00,44.3,26.3,30.37,NE,51,1.0,5.0,49,0.00,,,0.00,Wunderground v.1.15,2013-03-02 15:48:00,
2013-03-02 08:51:00,44.5,26.0,30.37,East,82,0.0,2.0,48,0.00,,,0.00,Wunderground v.1.15,2013-03-02 15:51:00,
2013-03-02 08:52:00,44.5,26.0,30.37,East,82,0.0,2.0,48,0.00,,,0.00,Wunderground v.1.15,2013-03-02 15:52:00,
2013-03-02 08:53:00,44.7,26.2,30.37,East,80,0.0,2.0,48,0.00,,,0.00,Wunderground v.1.15,2013-03-02 15:53:00,
2013-03-02 08:56:00,44.8,26.3,30.37,NE,43,2.0,3.0,48,0.00,,,0.00,Wunderground v.1.15,2013-03-02 15:56:00,
2013-03-02 08:57:00,44.7,25.7,30.37,NE,40,1.0,3.0,47,0.00,,,0.00,Wunderground v.1.15,2013-03-02 15:57:00,
2013-03-02 08:58:00,44.7,25.7,30.37,NE,39,1.0,3.0,47,0.00,,,0.00,Wunderground v.1.15,2013-03-02 15:58:00,
2013-03-02 09:01:00,44.7,25.7,30.37,ENE,72,2.0,2.0,47,0.00,,,0.00,Wunderground v.1.15,2013-03-02 16:01:00,
2013-03-02 09:02:00,44.7,25.7,30.37,East,79,2.0,3.0,47,0.00,,,0.00,Wunderground v.1.15,2013-03-02 16:02:00,
2013-03-02 09:03:00,44.7,26.2,30.37,NNE,27,4.0,5.0,48,0.00,,,0.00,Wunderground v.1.15,2013-03-02 16:03:00,
2013-03-02 09:06:00,44.4,24.9,30.36,ENE,60,1.0,5.0,46,0.00,,,0.00,Wunderground v.1.15,2013-03-02 16:06:00,
2013-03-02 09:07:00,44.4,25.4,30.36,East,98,1.0,5.0,47,0.00,,,0.00,Wunderground v.1.15,2013-03-02 16:07:00,
2013-03-02 09:09:00,44.5,25.5,30.36,East,98,0.0,5.0,47,0.00,,,0.00,Wunderground v.1.15,2013-03-02 16:09:00,
2013-03-02 09:11:00,44.9,25.3,30.36,SE,134,1.0,2.0,46,0.00,,,0.00,Wunderground v.1.15,2013-03-02 16:11:00,
2013-03-02 09:12:00,45.1,25.5,30.36,SE,134,1.0,2.0,46,0.00,,,0.00,Wunderground v.1.15,2013-03-02 16:12:00,
2013-03-02 09:13:00,45.2,25.6,30.36,SE,134,1.0,2.0,46,0.00,,,0.00,Wunderground v.1.15,2013-03-02 16:13:00,
2013-03-02 09:14:00,45.4,25.8,30.36,SE,134,0.0,2.0,46,0.00,,,0.00,Wunderground v.1.15,2013-03-02 16:14:00,
2013-03-02 09:16:00,45.9,26.8,30.36,SE,124,1.0,2.0,47,0.00,,,0.00,Wunderground v.1.15,2013-03-02 16:16:00,
2013-03-02 09:17:00,46.1,26.4,30.36,ENE,71,2.0,2.0,46,0.00,,,0.00,Wunderground v.1.15,2013-03-02 16:17:00,
2013-03-02 09:18:00,46.1,26.4,30.36,NE,46,0.0,2.0,46,0.00,,,0.00,Wunderground v.1.15,2013-03-02 16:18:00,
2013-03-02 09:19:00,46.2,26.5,30.36,NE,45,0.0,2.0,46,0.00,,,0.00,Wunderground v.1.15,2013-03-02 16:19:00,
2013-03-02 09:21:00,46.5,26.8,30.36,North,349,2.0,2.0,46,0.00,,,0.00,Wunderground v.1.15,2013-03-02 16:21:00,
2013-03-02 09:22:00,46.7,26.5,30.36,North,349,1.0,2.0,45,0.00,,,0.00,Wunderground v.1.15,2013-03-02 16:22:00,
2013-03-02 09:23:00,46.8,26.6,30.36,North,349,0.0,2.0,45,0.00,,,0.00,Wunderground v.1.15,2013-03-02 16:23:00,
2013-03-02 09:24:00,46.9,26.6,30.36,North,349,0.0,2.0,45,0.00,,,0.00,Wunderground v.1.15,2013-03-02 16:24:00,
2013-03-02 09:26:00,47.5,26.6,30.36,SE,134,0.0,2.0,44,0.00,,,0.00,Wunderground v.1.15,2013-03-02 16:26:00,
2013-03-02 09:27:00,47.7,26.8,30.36,SE,134,0.0,2.0,44,0.00,,,0.00,Wunderground v.1.15,2013-03-02 16:27:00,
2013-03-02 09:29:00,48.0,26.5,30.36,East,94,1.0,2.0,43,0.00,,,0.00,Wunderground v.1.15,2013-03-02 16:29:00,
2013-03-02 09:31:00,48.0,26.0,30.35,East,91,2.0,3.0,42,0.00,,,0.00,Wunderground v.1.15,2013-03-02 16:31:00,
2013-03-02 09:32:00,47.9,26.5,30.35,East,93,2.0,3.0,43,0.00,,,0.00,Wunderground v.1.15,2013-03-02 16:32:00,
2013-03-02 09:34:00,47.7,26.3,30.35,ENE,75,1.0,3.0,43,0.00,,,0.00,Wunderground v.1.15,2013-03-02 16:34:00,
2013-03-02 09:37:00,47.0,26.2,30.35,NNE,20,1.0,4.0,44,0.00,,,0.00,Wunderground v.1.15,2013-03-02 16:37:00,
2013-03-02 09:39:00,46.9,26.6,30.35,NNE,20,0.0,4.0,45,0.00,,,0.00,Wunderground v.1.15,2013-03-02 16:39:00,
2013-03-02 09:42:00,47.3,26.5,30.35,NNE,20,0.0,2.0,44,0.00,,,0.00,Wunderground v.1.15,2013-03-02 16:42:00,
2013-03-02 09:43:00,47.4,26.6,30.35,NNE,20,0.0,2.0,44,0.00,,,0.00,Wunderground v.1.15,2013-03-02 16:43:00,
2013-03-02 09:44:00,47.7,26.8,30.35,NNE,20,0.0,2.0,44,0.00,,,0.00,Wunderground v.1.15,2013-03-02 16:44:00,
2013-03-02 09:45:00,47.8,26.9,30.35,NNE,20,0.0,2.0,44,0.00,,,0.00,Wunderground v.1.15,2013-03-02 16:45:00,
2013-03-02 09:47:00,48.5,27.0,30.35,NE,47,2.0,2.0,43,0.00,,,0.00,Wunderground v.1.15,2013-03-02 16:47:00,
2013-03-02 09:48:00,48.7,27.2,30.35,ENE,70,2.0,3.0,43,0.00,,,0.00,Wunderground v.1.15,2013-03-02 16:48:00,
2013-03-02 09:49:00,48.7,27.7,30.35,NE,40,2.0,3.0,44,0.00,,,0.00,Wunderground v.1.15,2013-03-02 16:49:00,
2013-03-02 09:50:00,48.8,27.3,30.35,NNE,27,3.0,3.0,43,0.00,,,0.00,Wunderground v.1.15,2013-03-02 16:50:00,
2013-03-02 09:52:00,48.5,26.4,30.35,East,81,1.0,3.0,42,0.00,,,0.00,Wunderground v.1.15,2013-03-02 16:52:00,
2013-03-02 09:53:00,48.4,26.3,30.35,ENE,70,1.0,3.0,42,0.00,,,0.00,Wunderground v.1.15,2013-03-02 16:53:00,
2013-03-02 09:54:00,48.3,26.2,30.35,East,79,2.0,3.0,42,0.00,,,0.00,Wunderground v.1.15,2013-03-02 16:54:00,
2013-03-02 09:55:00,48.3,26.2,30.35,ENE,76,1.0,3.0,42,0.00,,,0.00,Wunderground v.1.15,2013-03-02 16:55:00,
2013-03-02 09:57:00,48.2,26.7,30.35,NE,34,5.0,6.0,43,0.00,,,0.00,Wunderground v.1.15,2013-03-02 16:57:00,
2013-03-02 09:58:00,48.1,27.2,30.35,NNE,30,6.0,7.0,44,0.00,,,0.00,Wunderground v.1.15,2013-03-02 16:58:00,
2013-03-02 09:59:00,47.9,26.5,30.35,NNE,32,3.0,7.0,43,0.00,,,0.00,Wunderground v.1.15,2013-03-02 16:59:00,
2013-03-02 10:00:00,47.7,26.3,30.35,NNE,33,6.0,7.0,43,0.00,,,0.00,Wunderground v.1.15,2013-03-02 17:00:00,
2013-03-02 10:03:00,47.3,26.5,30.34,NNE,19,3.0,7.0,44,0.00,,,0.00,Wunderground v.1.15,2013-03-02 17:03:00,
2013-03-02 10:04:00,47.3,26.5,30.34,ENE,60,1.0,7.0,44,0.00,,,0.00,Wunderground v.1.15,2013-03-02 17:04:00,
2013-03-02 10:05:00,47.3,26.5,30.34,NE,40,2.0,7.0,44,0.00,,,0.00,Wunderground v.1.15,2013-03-02 17:05:00,
2013-03-02 10:08:00,47.7,26.8,30.34,NNE,15,0.0,7.0,44,0.00,,,0.00,Wunderground v.1.15,2013-03-02 17:08:00,
2013-03-02 10:09:00,48.0,26.5,30.34,NW,312,1.0,7.0,43,0.00,,,0.00,Wunderground v.1.15,2013-03-02 17:09:00,
2013-03-02 10:10:00,48.1,26.6,30.34,NW,312,0.0,2.0,43,0.00,,,0.00,Wunderground v.1.15,2013-03-02 17:10:00,
2013-03-02 10:13:00,48.8,27.3,30.34,North,354,1.0,2.0,43,0.00,,,0.00,Wunderground v.1.15,2013-03-02 17:13:00,
2013-03-02 10:14:00,49.0,27.5,30.34,North,356,1.0,2.0,43,0.00,,,0.00,Wunderground v.1.15,2013-03-02 17:14:00,
2013-03-02 10:15:00,49.2,27.1,30.34,ENE,74,1.0,2.0,42,0.00,,,0.00,Wunderground v.1.15,2013-03-02 17:15:00,
2013-03-02 10:18:00,49.3,27.2,30.34,NE,49,3.0,5.0,42,0.00,,,0.00,Wunderground v.1.15,2013-03-02 17:18:00,
2013-03-02 10:19:00,49.3,27.2,30.34,NE,43,3.0,5.0,42,0.00,,,0.00,Wunderground v.1.15,2013-03-02 17:19:00,
2013-03-02 10:20:00,49.1,27.0,30.34,NE,42,3.0,5.0,42,0.00,,,0.00,Wunderground v.1.15,2013-03-02 17:20:00,
2013-03-02 10:24:00,48.5,27.0,30.34,NE,41,5.0,6.0,43,0.00,,,0.00,Wunderground v.1.15,2013-03-02 17:24:00,
2013-03-02 10:25:00,48.3,26.2,30.34,NE,42,6.0,6.0,42,0.00,,,0.00,Wunderground v.1.15,2013-03-02 17:25:00,
2013-03-02 10:29:00,48.4,27.5,30.34,East,79,4.0,7.0,44,0.00,,,0.00,Wunderground v.1.15,2013-03-02 17:29:00,
2013-03-02 10:30:00,48.7,27.2,30.34,East,82,4.0,5.0,43,0.00,,,0.00,Wunderground v.1.15,2013-03-02 17:30:00,
2013-03-02 10:34:00,48.9,27.9,30.33,NNE,27,5.0,7.0,44,0.00,,,0.00,Wunderground v.1.15,2013-03-02 17:34:00,
2013-03-02 10:35:00,48.9,27.4,30.33,NNE,27,5.0,7.0,43,0.00,,,0.00,Wunderground v.1.15,2013-03-02 17:35:00,
2013-03-02 10:39:00,48.8,26.7,30.34,East,79,2.0,7.0,42,0.00,,,0.00,Wunderground v.1.15,2013-03-02 17:39:00,
2013-03-02 10:40:00,48.9,26.8,30.34,East,91,2.0,4.0,42,0.00,,,0.00,Wunderground v.1.15,2013-03-02 17:40:00,
2013-03-02 10:44:00,49.1,27.0,30.34,ENE,67,4.0,5.0,42,0.00,,,0.00,Wunderground v.1.15,2013-03-02 17:44:00,
2013-03-02 10:45:00,49.2,27.1,30.34,East,94,2.0,5.0,42,0.00,,,0.00,Wunderground v.1.15,2013-03-02 17:45:00,
2013-03-02 10:46:00,49.2,27.1,30.34,ESE,105,3.0,5.0,42,0.00,,,0.00,Wunderground v.1.15,2013-03-02 17:46:00,
2013-03-02 10:49:00,49.5,27.3,30.34,East,84,2.0,5.0,42,0.00,,,0.00,Wunderground v.1.15,2013-03-02 17:49:00,
2013-03-02 10:50:00,49.5,26.7,30.34,East,79,3.0,4.0,41,0.00,,,0.00,Wunderground v.1.15,2013-03-02 17:50:00,
2013-03-02 10:51:00,49.4,27.2,30.34,East,79,5.0,5.0,42,0.00,,,0.00,Wunderground v.1.15,2013-03-02 17:51:00,
2013-03-02 10:54:00,48.9,26.8,30.34,ENE,77,4.0,5.0,42,0.00,,,0.00,Wunderground v.1.15,2013-03-02 17:54:00,
2013-03-02 10:55:00,48.9,26.2,30.34,East,84,3.0,5.0,41,0.00,,,0.00,Wunderground v.1.15,2013-03-02 17:55:00,
2013-03-02 10:56:00,48.8,26.1,30.34,East,84,4.0,5.0,41,0.00,,,0.00,Wunderground v.1.15,2013-03-02 17:56:00,
2013-03-02 10:59:00,48.9,25.6,30.34,ENE,70,2.0,5.0,40,0.00,,,0.00,Wunderground v.1.15,2013-03-02 17:59:00,
2013-03-02 11:00:00,48.9,25.6,30.34,ENE,68,3.0,3.0,40,0.00,,,0.00,Wunderground v.1.15,2013-03-02 18:00:00,
2013-03-02 11:01:00,49.1,26.4,30.34,ENE,61,2.0,3.0,41,0.00,,,0.00,Wunderground v.1.15,2013-03-02 18:01:00,
2013-03-02 11:04:00,49.5,25.5,30.33,ENE,72,2.0,3.0,39,0.00,,,0.00,Wunderground v.1.15,2013-03-02 18:04:00,
2013-03-02 11:05:00,49.5,26.1,30.33,East,89,3.0,4.0,40,0.00,,,0.00,Wunderground v.1.15,2013-03-02 18:05:00,
2013-03-02 11:06:00,49.6,26.2,30.33,ENE,75,2.0,4.0,40,0.00,,,0.00,Wunderground v.1.15,2013-03-02 18:06:00,
2013-03-02 11:09:00,50.1,26.1,30.33,ENE,74,2.0,4.0,39,0.00,,,0.00,Wunderground v.1.15,2013-03-02 18:09:00,
2013-03-02 11:10:00,50.2,26.2,30.33,East,79,1.0,2.0,39,0.00,,,0.00,Wunderground v.1.15,2013-03-02 18:10:00,
2013-03-02 11:11:00,50.3,25.6,30.33,ENE,75,2.0,2.0,38,0.00,,,0.00,Wunderground v.1.15,2013-03-02 18:11:00,
2013-03-02 11:14:00,50.9,25.5,30.33,East,89,3.0,4.0,37,0.00,,,0.00,Wunderground v.1.15,2013-03-02 18:14:00,
2013-03-02 11:15:00,51.0,25.0,30.33,East,84,2.0,4.0,36,0.00,,,0.00,Wunderground v.1.15,2013-03-02 18:15:00,
2013-03-02 11:16:00,51.0,25.0,30.33,ENE,69,2.0,4.0,36,0.00,,,0.00,Wunderground v.1.15,2013-03-02 18:16:00,
2013-03-02 11:19:00,51.3,25.9,30.33,East,80,3.0,4.0,37,0.00,,,0.00,Wunderground v.1.15,2013-03-02 18:19:00,
2013-03-02 11:20:00,51.4,26.0,30.33,NE,37,3.0,3.0,37,0.00,,,0.00,Wunderground v.1.15,2013-03-02 18:20:00,
2013-03-02 11:21:00,51.4,26.0,30.33,NNE,30,1.0,3.0,37,0.00,,,0.00,Wunderground v.1.15,2013-03-02 18:21:00,
2013-03-02 11:24:00,51.4,24.6,30.33,East,93,3.0,5.0,35,0.00,,,0.00,Wunderground v.1.15,2013-03-02 18:24:00,
2013-03-02 11:25:00,51.4,24.6,30.33,East,91,3.0,5.0,35,0.00,,,0.00,Wunderground v.1.15,2013-03-02 18:25:00,
2013-03-02 11:26:00,51.4,24.6,30.33,East,80,3.0,5.0,35,0.00,,,0.00,Wunderground v.1.15,2013-03-02 18:26:00,
2013-03-02 11:30:00,51.2,23.8,30.32,ENE,58,4.0,5.0,34,0.00,,,0.00,Wunderground v.1.15,2013-03-02 18:30:00,
2013-03-02 11:31:00,51.2,24.5,30.32,ENE,71,2.0,3.0,35,0.00,,,0.00,Wunderground v.1.15,2013-03-02 18:31:00,
2013-03-02 11:32:00,51.2,24.5,30.32,ENE,64,2.0,3.0,35,0.00,,,0.00,Wunderground v.1.15,2013-03-02 18:32:00,
2013-03-02 11:35:00,51.4,24.6,30.32,ENE,71,2.0,4.0,35,0.00,,,0.00,Wunderground v.1.15,2013-03-02 18:35:00,
2013-03-02 11:36:00,51.5,24.7,30.32,East,79,0.0,4.0,35,0.00,,,0.00,Wunderground v.1.15,2013-03-02 18:36:00,
2013-03-02 11:37:00,51.6,25.5,30.32,East,82,3.0,4.0,36,0.00,,,0.00,Wunderground v.1.15,2013-03-02 18:37:00,
2013-03-02 11:39:00,51.9,25.1,30.32,East,79,2.0,4.0,35,0.00,,,0.00,Wunderground v.1.15,2013-03-02 18:39:00,
2013-03-02 11:41:00,51.9,24.4,30.31,ENE,77,2.0,3.0,34,0.00,,,0.00,Wunderground v.1.15,2013-03-02 18:41:00,
2013-03-02 11:42:00,52.0,25.2,30.31,East,96,4.0,4.0,35,0.00,,,0.00,Wunderground v.1.15,2013-03-02 18:42:00,
2013-03-02 11:45:00,52.1,24.6,30.31,East,100,5.0,5.0,34,0.00,,,0.00,Wunderground v.1.15,2013-03-02 18:45:00,
2013-03-02 11:46:00,52.1,24.6,30.31,East,93,7.0,7.0,34,0.00,,,0.00,Wunderground v.1.15,2013-03-02 18:46:00,
2013-03-02 11:47:00,52.1,24.6,30.31,East,99,5.0,7.0,34,0.00,,,0.00,Wunderground v.1.15,2013-03-02 18:47:00,
2013-03-02 11:50:00,52.0,25.2,30.31,East,82,4.0,4.0,35,0.00,,,0.00,Wunderground v.1.15,2013-03-02 18:50:00,
2013-03-02 11:51:00,52.0,26.5,30.31,ENE,78,4.0,8.0,37,0.00,,,0.00,Wunderground v.1.15,2013-03-02 18:51:00,
2013-03-02 11:52:00,51.9,24.4,30.31,East,85,5.0,8.0,34,0.00,,,0.00,Wunderground v.1.15,2013-03-02 18:52:00,
2013-03-02 11:55:00,51.8,25.0,30.31,East,99,4.0,8.0,35,0.00,,,0.00,Wunderground v.1.15,2013-03-02 18:55:00,
2013-03-02 11:56:00,51.8,24.3,30.30,NE,53,3.0,8.0,34,0.00,,,0.00,Wunderground v.1.15,2013-03-02 18:56:00,
2013-03-02 11:57:00,51.8,25.0,30.30,East,92,4.0,8.0,35,0.00,,,0.00,Wunderground v.1.15,2013-03-02 18:57:00,
2013-03-02 12:00:00,51.8,24.3,30.30,SE,127,2.0,4.0,34,0.00,,,0.00,Wunderground v.1.15,2013-03-02 19:00:00,
2013-03-02 12:01:00,51.9,24.4,30.30,East,98,2.0,4.0,34,0.00,,,0.00,Wunderground v.1.15,2013-03-02 19:01:00,
2013-03-02 12:02:00,52.0,24.5,30.30,ENE,64,2.0,5.0,34,0.00,,,0.00,Wunderground v.1.15,2013-03-02 19:02:00,
2013-03-02 12:06:00,52.0,23.8,30.30,East,101,4.0,7.0,33,0.00,,,0.00,Wunderground v.1.15,2013-03-02 19:06:00,
2013-03-02 12:07:00,51.9,23.7,30.30,East,94,5.0,7.0,33,0.00,,,0.00,Wunderground v.1.15,2013-03-02 19:07:00,
2013-03-02 12:11:00,51.8,23.6,30.30,East,86,4.0,9.0,33,0.00,,,0.00,Wunderground v.1.15,2013-03-02 19:11:00,
2013-03-02 12:12:00,51.7,24.2,30.29,East,94,6.0,9.0,34,0.00,,,0.00,Wunderground v.1.15,2013-03-02 19:12:00,
2013-03-02 12:16:00,51.8,24.3,30.29,East,101,3.0,9.0,34,0.00,,,0.00,Wunderground v.1.15,2013-03-02 19:16:00,
2013-03-02 12:17:00,51.8,25.0,30.29,SSE,166,2.0,9.0,35,0.00,,,0.00,Wunderground v.1.15,2013-03-02 19:17:00,
2013-03-02 12:18:00,51.9,25.1,30.29,SSE,153,1.0,9.0,35,0.00,,,0.00,Wunderground v.1.15,2013-03-02 19:18:00,
2013-03-02 12:21:00,52.6,24.3,30.29,South,170,5.0,6.0,33,0.00,,,0.00,Wunderground v.1.15,2013-03-02 19:21:00,
2013-03-02 12:22:00,52.8,23.7,30.29,SSW,194,5.0,10.0,32,0.00,,,0.00,Wunderground v.1.15,2013-03-02 19:22:00,
2013-03-02 12:23:00,52.8,24.5,30.29,ESE,114,3.0,10.0,33,0.00,,,0.00,Wunderground v.1.15,2013-03-02 19:23:00,
2013-03-02 12:26:00,52.7,23.6,30.28,SE,133,5.0,10.0,32,0.00,,,0.00,Wunderground v.1.15,2013-03-02 19:26:00,
2013-03-02 12:27:00,52.7,22.9,30.28,SSE,153,5.0,10.0,31,0.00,,,0.00,Wunderground v.1.15,2013-03-02 19:27:00,
2013-03-02 12:28:00,52.6,23.5,30.28,SE,141,4.0,10.0,32,0.00,,,0.00,Wunderground v.1.15,2013-03-02 19:28:00,
2013-03-02 12:31:00,52.6,24.3,30.28,East,98,4.0,5.0,33,0.00,,,0.00,Wunderground v.1.15,2013-03-02 19:31:00,
2013-03-02 12:32:00,52.6,24.3,30.28,SE,132,2.0,5.0,33,0.00,,,0.00,Wunderground v.1.15,2013-03-02 19:32:00,
2013-03-02 12:33:00,52.6,24.3,30.28,ESE,105,5.0,6.0,33,0.00,,,0.00,Wunderground v.1.15,2013-03-02 19:33:00,
2013-03-02 12:36:00,52.7,24.4,30.28,East,101,3.0,7.0,33,0.00,,,0.00,Wunderground v.1.15,2013-03-02 19:36:00,
2013-03-02 12:37:00,52.7,25.1,30.28,ESE,117,3.0,7.0,34,0.00,,,0.00,Wunderground v.1.15,2013-03-02 19:37:00,
2013-03-02 12:38:00,52.7,24.4,30.28,East,100,1.0,7.0,33,0.00,,,0.00,Wunderground v.1.15,2013-03-02 19:38:00,
2013-03-02 12:41:00,52.6,24.3,30.27,SE,139,2.0,5.0,33,0.00,,,0.00,Wunderground v.1.15,2013-03-02 19:41:00,
2013-03-02 12:42:00,52.6,24.3,30.27,SSE,150,2.0,5.0,33,0.00,,,0.00,Wunderground v.1.15,2013-03-02 19:42:00,
2013-03-02 12:43:00,52.6,23.5,30.28,SE,138,5.0,5.0,32,0.00,,,0.00,Wunderground v.1.15,2013-03-02 19:43:00,
2013-03-02 12:46:00,52.7,23.6,30.27,ESE,120,4.0,6.0,32,0.00,,,0.00,Wunderground v.1.15,2013-03-02 19:46:00,
2013-03-02 12:47:00,52.7,23.6,30.27,SE,141,3.0,6.0,32,0.00,,,0.00,Wunderground v.1.15,2013-03-02 19:47:00,
2013-03-02 12:48:00,52.7,23.6,30.27,ESE,122,3.0,6.0,32,0.00,,,0.00,Wunderground v.1.15,2013-03-02 19:48:00,
2013-03-02 12:52:00,52.8,24.5,30.27,ESE,117,2.0,3.0,33,0.00,,,0.00,Wunderground v.1.15,2013-03-02 19:52:00,
2013-03-02 12:53:00,52.8,24.5,30.27,SE,136,3.0,4.0,33,0.00,,,0.00,Wunderground v.1.15,2013-03-02 19:53:00,
2013-03-02 12:57:00,52.8,24.5,30.26,SW,219,4.0,5.0,33,0.00,,,0.00,Wunderground v.1.15,2013-03-02 19:57:00,
2013-03-02 12:58:00,52.8,24.5,30.26,SSW,210,4.0,6.0,33,0.00,,,0.00,Wunderground v.1.15,2013-03-02 19:58:00,
2013-03-02 13:02:00,53.1,24.7,30.26,SE,144,0.0,5.0,33,0.00,,,0.00,Wunderground v.1.15,2013-03-02 20:02:00,
2013-03-02 13:03:00,53.3,25.6,30.26,SE,143,0.0,5.0,34,0.00,,,0.00,Wunderground v.1.15,2013-03-02 20:03:00,
2013-03-02 13:07:00,54.3,25.0,30.25,ESE,108,5.0,5.0,32,0.00,,,0.00,Wunderground v.1.15,2013-03-02 20:07:00,
2013-03-02 13:08:00,54.2,25.7,30.25,SE,137,2.0,5.0,33,0.00,,,0.00,Wunderground v.1.15,2013-03-02 20:08:00,
2013-03-02 13:12:00,54.4,26.6,30.25,East,82,1.0,2.0,34,0.00,,,0.00,Wunderground v.1.15,2013-03-02 20:12:00,
2013-03-02 13:13:00,54.6,26.8,30.25,East,82,1.0,2.0,34,0.00,,,0.00,Wunderground v.1.15,2013-03-02 20:13:00,
2013-03-02 13:17:00,54.8,25.5,30.25,SE,135,3.0,8.0,32,0.00,,,0.00,Wunderground v.1.15,2013-03-02 20:17:00,
2013-03-02 13:18:00,54.7,25.4,30.25,SE,130,2.0,8.0,32,0.00,,,0.00,Wunderground v.1.15,2013-03-02 20:18:00,
2013-03-02 13:22:00,54.3,26.5,30.24,SE,124,4.0,6.0,34,0.00,,,0.00,Wunderground v.1.15,2013-03-02 20:22:00,
2013-03-02 13:23:00,54.3,26.5,30.24,SE,142,5.0,6.0,34,0.00,,,0.00,Wunderground v.1.15,2013-03-02 20:23:00,
2013-03-02 13:27:00,54.2,27.1,30.24,SE,125,0.0,7.0,35,0.00,,,0.00,Wunderground v.1.15,2013-03-02 20:27:00,
2013-03-02 13:28:00,54.2,27.1,30.24,SE,126,0.0,7.0,35,0.00,,,0.00,Wunderground v.1.15,2013-03-02 20:28:00,
2013-03-02 13:33:00,55.1,26.5,30.24,South,187,2.0,4.0,33,0.00,,,0.00,Wunderground v.1.15,2013-03-02 20:33:00,
2013-03-02 13:34:00,55.1,26.5,30.24,East,88,2.0,4.0,33,0.00,,,0.00,Wunderground v.1.15,2013-03-02 20:34:00,
2013-03-02 13:38:00,54.8,26.9,30.24,SE,139,3.0,7.0,34,0.00,,,0.00,Wunderground v.1.15,2013-03-02 20:38:00,
2013-03-02 13:39:00,54.6,26.0,30.24,SE,127,1.0,7.0,33,0.00,,,0.00,Wunderground v.1.15,2013-03-02 20:39:00,
2013-03-02 13:43:00,54.9,26.3,30.23,SSE,158,3.0,6.0,33,0.00,,,0.00,Wunderground v.1.15,2013-03-02 20:43:00,
2013-03-02 13:44:00,55.0,26.4,30.23,SSE,148,2.0,6.0,33,0.00,,,0.00,Wunderground v.1.15,2013-03-02 20:44:00,
2013-03-02 13:48:00,55.4,27.5,30.23,South,177,2.0,6.0,34,0.00,,,0.00,Wunderground v.1.15,2013-03-02 20:48:00,
2013-03-02 13:49:00,55.5,26.8,30.23,SSE,153,2.0,6.0,33,0.00,,,0.00,Wunderground v.1.15,2013-03-02 20:49:00,
2013-03-02 13:53:00,55.6,26.9,30.23,SSW,202,4.0,5.0,33,0.00,,,0.00,Wunderground v.1.15,2013-03-02 20:53:00,
2013-03-02 13:54:00,55.7,27.0,30.23,SE,140,3.0,5.0,33,0.00,,,0.00,Wunderground v.1.15,2013-03-02 20:54:00,
2013-03-02 13:58:00,55.8,26.3,30.23,SSE,160,4.0,5.0,32,0.00,,,0.00,Wunderground v.1.15,2013-03-02 20:58:00,
2013-03-02 13:59:00,55.8,26.3,30.22,SSW,203,2.0,5.0,32,0.00,,,0.00,Wunderground v.1.15,2013-03-02 20:59:00,
2013-03-02 14:03:00,56.2,26.7,30.22,SE,129,2.0,5.0,32,0.00,,,0.00,Wunderground v.1.15,2013-03-02 21:03:00,
2013-03-02 14:04:00,56.2,26.7,30.22,South,171,4.0,6.0,32,0.00,,,0.00,Wunderground v.1.15,2013-03-02 21:04:00,
2013-03-02 14:05:00,56.3,26.8,30.22,SSE,153,3.0,6.0,32,0.00,,,0.00,Wunderground v.1.15,2013-03-02 21:05:00,
2013-03-02 14:08:00,56.3,26.0,30.22,SSE,153,2.0,6.0,31,0.00,,,0.00,Wunderground v.1.15,2013-03-02 21:08:00,
2013-03-02 14:09:00,56.3,26.0,30.22,SSE,162,3.0,6.0,31,0.00,,,0.00,Wunderground v.1.15,2013-03-02 21:09:00,
2013-03-02 14:10:00,56.3,26.0,30.22,SSE,162,3.0,3.0,31,0.00,,,0.00,Wunderground v.1.15,2013-03-02 21:10:00,
2013-03-02 14:13:00,56.4,26.9,30.22,SSW,210,3.0,5.0,32,0.00,,,0.00,Wunderground v.1.15,2013-03-02 21:13:00,
2013-03-02 14:14:00,56.3,26.8,30.22,SSW,198,5.0,5.0,32,0.00,,,0.00,Wunderground v.1.15,2013-03-02 21:14:00,
2013-03-02 14:15:00,56.3,26.8,30.22,SW,236,4.0,6.0,32,0.00,,,0.00,Wunderground v.1.15,2013-03-02 21:15:00,
2013-03-02 14:18:00,56.1,26.6,30.22,SW,222,4.0,7.0,32,0.00,,,0.00,Wunderground v.1.15,2013-03-02 21:18:00,
2013-03-02 14:19:00,55.9,26.4,30.22,SSW,207,4.0,7.0,32,0.00,,,0.00,Wunderground v.1.15,2013-03-02 21:19:00,
2013-03-02 14:20:00,55.9,26.4,30.22,SSW,201,4.0,5.0,32,0.00,,,0.00,Wunderground v.1.15,2013-03-02 21:20:00,
2013-03-02 14:23:00,55.9,26.4,30.22,SW,215,4.0,6.0,32,0.00,,,0.00,Wunderground v.1.15,2013-03-02 21:23:00,
2013-03-02 14:24:00,55.9,27.9,30.22,WSW,250,3.0,6.0,34,0.00,,,0.00,Wunderground v.1.15,2013-03-02 21:24:00,
2013-03-02 14:25:00,55.9,27.9,30.22,SW,236,2.0,6.0,34,0.00,,,0.00,Wunderground v.1.15,2013-03-02 21:25:00,
2013-03-02 14:29:00,56.3,26.8,30.22,SSW,210,4.0,6.0,32,0.00,,,0.00,Wunderground v.1.15,2013-03-02 21:29:00,
2013-03-02 14:30:00,56.3,26.8,30.21,SSW,208,1.0,4.0,32,0.00,,,0.00,Wunderground v.1.15,2013-03-02 21:30:00,
2013-03-02 14:34:00,56.8,26.5,30.21,ESE,102,1.0,4.0,31,0.00,,,0.00,Wunderground v.1.15,2013-03-02 21:34:00,
2013-03-02 14:35:00,57.0,26.6,30.21,South,173,2.0,4.0,31,0.00,,,0.00,Wunderground v.1.15,2013-03-02 21:35:00,
2013-03-02 14:39:00,57.4,25.4,30.21,SSW,210,1.0,5.0,29,0.00,,,0.00,Wunderground v.1.15,2013-03-02 21:39:00,
2013-03-02 14:40:00,57.4,26.2,30.21,SSE,160,1.0,2.0,30,0.00,,,0.00,Wunderground v.1.15,2013-03-02 21:40:00,
2013-03-02 14:44:00,56.4,29.1,30.21,East,83,5.0,9.0,35,0.00,,,0.00,Wunderground v.1.15,2013-03-02 21:44:00,
2013-03-02 14:45:00,56.0,28.7,30.21,ENE,74,6.0,9.0,35,0.00,,,0.00,Wunderground v.1.15,2013-03-02 21:45:00,
2013-03-02 14:49:00,54.8,28.3,30.21,East,98,3.0,9.0,36,0.00,,,0.00,Wunderground v.1.15,2013-03-02 21:49:00,
2013-03-02 14:50:00,54.7,29.6,30.21,East,91,4.0,5.0,38,0.00,,,0.00,Wunderground v.1.15,2013-03-02 21:50:00,
2013-03-02 14:51:00,54.6,28.8,30.21,East,95,3.0,5.0,37,0.00,,,0.00,Wunderground v.1.15,2013-03-02 21:51:00,
2013-03-02 14:54:00,54.1,29.7,30.21,East,85,4.0,6.0,39,0.00,,,0.00,Wunderground v.1.15,2013-03-02 21:54:00,
2013-03-02 14:55:00,53.9,28.8,30.21,East,84,4.0,6.0,38,0.00,,,0.00,Wunderground v.1.15,2013-03-02 21:55:00,
2013-03-02 14:56:00,53.9,30.1,30.21,East,84,5.0,6.0,40,0.00,,,0.00,Wunderground v.1.15,2013-03-02 21:56:00,
2013-03-02 14:59:00,53.3,29.6,30.21,ESE,115,4.0,6.0,40,0.00,,,0.00,Wunderground v.1.15,2013-03-02 21:59:00,
2013-03-02 15:00:00,53.1,29.4,30.21,ESE,110,4.0,4.0,40,0.00,,,0.00,Wunderground v.1.15,2013-03-02 22:00:00,
2013-03-02 15:01:00,53.1,29.4,30.21,ESE,103,3.0,5.0,40,0.00,,,0.00,Wunderground v.1.15,2013-03-02 22:01:00,
2013-03-02 15:04:00,52.9,29.8,30.21,ENE,75,4.0,6.0,41,0.00,,,0.00,Wunderground v.1.15,2013-03-02 22:04:00,
2013-03-02 15:05:00,52.9,29.8,30.21,ENE,75,4.0,7.0,41,0.00,,,0.00,Wunderground v.1.15,2013-03-02 22:05:00,
2013-03-02 15:06:00,52.9,29.8,30.21,ENE,78,5.0,7.0,41,0.00,,,0.00,Wunderground v.1.15,2013-03-02 22:06:00,
2013-03-02 15:09:00,52.8,30.3,30.21,East,90,4.0,7.0,42,0.00,,,0.00,Wunderground v.1.15,2013-03-02 22:09:00,
2013-03-02 15:10:00,52.8,29.1,30.21,ENE,64,3.0,4.0,40,0.00,,,0.00,Wunderground v.1.15,2013-03-02 22:10:00,
2013-03-02 15:11:00,52.8,29.1,30.21,ENE,65,3.0,4.0,40,0.00,,,0.00,Wunderground v.1.15,2013-03-02 22:11:00,
2013-03-02 15:14:00,52.8,28.5,30.21,East,101,3.0,4.0,39,0.00,,,0.00,Wunderground v.1.15,2013-03-02 22:14:00,
2013-03-02 15:16:00,52.8,28.5,30.21,ESE,108,2.0,4.0,39,0.00,,,0.00,Wunderground v.1.15,2013-03-02 22:16:00,
2013-03-02 15:19:00,53.0,29.3,30.21,East,83,0.0,4.0,40,0.00,,,0.00,Wunderground v.1.15,2013-03-02 22:19:00,
2013-03-02 15:21:00,53.1,29.4,30.21,East,83,1.0,3.0,40,0.00,,,0.00,Wunderground v.1.15,2013-03-02 22:21:00,
2013-03-02 15:24:00,54.1,29.7,30.21,WSW,240,1.0,3.0,39,0.00,,,0.00,Wunderground v.1.15,2013-03-02 22:24:00,
2013-03-02 15:25:00,54.4,29.9,30.21,SW,215,2.0,3.0,39,0.00,,,0.00,Wunderground v.1.15,2013-03-02 22:25:00,
2013-03-02 15:26:00,54.4,29.9,30.21,SSW,198,3.0,3.0,39,0.00,,,0.00,Wunderground v.1.15,2013-03-02 22:26:00,
2013-03-02 15:29:00,55.0,29.8,30.21,SSW,204,1.0,3.0,38,0.00,,,0.00,Wunderground v.1.15,2013-03-02 22:29:00,
2013-03-02 15:31:00,55.2,30.0,30.20,SSW,204,0.0,1.0,38,0.00,,,0.00,Wunderground v.1.15,2013-03-02 22:31:00,
2013-03-02 15:34:00,55.8,29.9,30.21,East,94,1.0,2.0,37,0.00,,,0.00,Wunderground v.1.15,2013-03-02 22:34:00,
2013-03-02 15:36:00,55.7,29.8,30.20,East,98,1.0,2.0,37,0.00,,,0.00,Wunderground v.1.15,2013-03-02 22:36:00,
2013-03-02 15:40:00,55.5,29.6,30.20,ESE,109,0.0,2.0,37,0.00,,,0.00,Wunderground v.1.15,2013-03-02 22:40:00,
2013-03-02 15:41:00,55.6,29.7,30.20,ESE,120,0.0,1.0,37,0.00,,,0.00,Wunderground v.1.15,2013-03-02 22:41:00,
2013-03-02 15:42:00,55.7,29.1,30.20,ESE,109,2.0,3.0,36,0.00,,,0.00,Wunderground v.1.15,2013-03-02 22:42:00,
2013-03-02 15:45:00,55.7,29.8,30.20,ESE,106,2.0,3.0,37,0.00,,,0.00,Wunderground v.1.15,2013-03-02 22:45:00,
2013-03-02 15:46:00,55.7,30.5,30.20,ESE,112,0.0,3.0,38,0.00,,,0.00,Wunderground v.1.15,2013-03-02 22:46:00,
2013-03-02 15:47:00,55.8,30.5,30.20,SE,127,3.0,3.0,38,0.00,,,0.00,Wunderground v.1.15,2013-03-02 22:47:00,
2013-03-02 15:50:00,56.0,29.4,30.20,SE,129,5.0,5.0,36,0.00,,,0.00,Wunderground v.1.15,2013-03-02 22:50:00,
2013-03-02 15:51:00,55.9,29.3,30.20,South,172,3.0,6.0,36,0.00,,,0.00,Wunderground v.1.15,2013-03-02 22:51:00,
2013-03-02 15:52:00,55.8,29.2,30.20,SSE,150,3.0,6.0,36,0.00,,,0.00,Wunderground v.1.15,2013-03-02 22:52:00,
2013-03-02 15:55:00,55.5,30.3,30.20,SE,142,1.0,6.0,38,0.00,,,0.00,Wunderground v.1.15,2013-03-02 22:55:00,
2013-03-02 15:56:00,55.5,29.6,30.20,SSW,211,2.0,6.0,37,0.00,,,0.00,Wunderground v.1.15,2013-03-02 22:56:00,
2013-03-02 15:57:00,55.4,29.5,30.20,WSW,243,2.0,6.0,37,0.00,,,0.00,Wunderground v.1.15,2013-03-02 22:57:00,
2013-03-02 16:00:00,55.2,29.4,30.20,SSE,160,2.0,3.0,37,0.00,,,0.00,Wunderground v.1.15,2013-03-02 23:00:00,
2013-03-02 16:01:00,55.1,29.9,30.20,South,180,5.0,6.0,38,0.00,,,0.00,Wunderground v.1.15,2013-03-02 23:01:00,
2013-03-02 16:02:00,55.1,29.9,30.20,SSE,165,4.0,6.0,38,0.00,,,0.00,Wunderground v.1.15,2013-03-02 23:02:00,
2013-03-02 16:05:00,54.7,30.2,30.19,SE,132,3.0,6.0,39,0.00,,,0.00,Wunderground v.1.15,2013-03-02 23:05:00,
2013-03-02 16:07:00,54.5,29.4,30.20,SE,143,1.0,6.0,38,0.00,,,0.00,Wunderground v.1.15,2013-03-02 23:07:00,
2013-03-02 16:10:00,54.3,29.8,30.20,SSE,164,2.0,3.0,39,0.00,,,0.00,Wunderground v.1.15,2013-03-02 23:10:00,
2013-03-02 16:12:00,54.3,29.8,30.20,SSE,160,2.0,4.0,39,0.00,,,0.00,Wunderground v.1.15,2013-03-02 23:12:00,
2013-03-02 16:15:00,54.1,30.3,30.19,SSW,193,0.0,4.0,40,0.00,,,0.00,Wunderground v.1.15,2013-03-02 23:15:00,
2013-03-02 16:17:00,54.1,29.7,30.20,SSW,210,0.0,4.0,39,0.00,,,0.00,Wunderground v.1.15,2013-03-02 23:17:00,
2013-03-02 16:21:00,54.1,30.3,30.20,West,263,2.0,4.0,40,0.00,,,0.00,Wunderground v.1.15,2013-03-02 23:21:00,
2013-03-02 16:22:00,53.9,30.1,30.20,SW,236,3.0,4.0,40,0.00,,,0.00,Wunderground v.1.15,2013-03-02 23:22:00,
2013-03-02 16:23:00,53.8,30.0,30.20,WSW,248,3.0,4.0,40,0.00,,,0.00,Wunderground v.1.15,2013-03-02 23:23:00,
2013-03-02 16:26:00,53.3,30.2,30.19,WSW,246,2.0,4.0,41,0.00,,,0.00,Wunderground v.1.15,2013-03-02 23:26:00,
2013-03-02 16:27:00,53.1,30.0,30.19,WSW,256,2.0,4.0,41,0.00,,,0.00,Wunderground v.1.15,2013-03-02 23:27:00,
2013-03-02 16:28:00,53.0,29.9,30.19,SW,236,2.0,4.0,41,0.00,,,0.00,Wunderground v.1.15,2013-03-02 23:28:00,
2013-03-02 16:31:00,52.8,29.7,30.19,SW,233,2.0,2.0,41,0.00,,,0.00,Wunderground v.1.15,2013-03-02 23:31:00,
2013-03-02 16:32:00,52.7,29.6,30.19,WSW,246,3.0,3.0,41,0.00,,,0.00,Wunderground v.1.15,2013-03-02 23:32:00,
2013-03-02 16:33:00,52.6,29.5,30.19,WSW,253,3.0,4.0,41,0.00,,,0.00,Wunderground v.1.15,2013-03-02 23:33:00,
2013-03-02 16:36:00,52.4,30.0,30.19,SW,222,2.0,4.0,42,0.00,,,0.00,Wunderground v.1.15,2013-03-02 23:36:00,
2013-03-02 16:37:00,52.3,29.9,30.19,SW,236,2.0,4.0,42,0.00,,,0.00,Wunderground v.1.15,2013-03-02 23:37:00,
2013-03-02 16:38:00,52.3,29.9,30.19,WSW,242,2.0,4.0,42,0.00,,,0.00,Wunderground v.1.15,2013-03-02 23:38:00,
2013-03-02 16:41:00,52.1,29.7,30.19,West,259,1.0,2.0,42,0.00,,,0.00,Wunderground v.1.15,2013-03-02 23:41:00,
2013-03-02 16:42:00,52.1,30.3,30.19,SW,235,2.0,2.0,43,0.00,,,0.00,Wunderground v.1.15,2013-03-02 23:42:00,
2013-03-02 16:43:00,52.0,30.2,30.19,SW,235,2.0,2.0,43,0.00,,,0.00,Wunderground v.1.15,2013-03-02 23:43:00,
2013-03-02 16:46:00,51.7,29.9,30.19,West,260,2.0,2.0,43,0.00,,,0.00,Wunderground v.1.15,2013-03-02 23:46:00,
2013-03-02 16:47:00,51.6,29.8,30.19,WSW,246,2.0,2.0,43,0.00,,,0.00,Wunderground v.1.15,2013-03-02 23:47:00,
2013-03-02 16:48:00,51.6,29.8,30.19,WSW,250,2.0,3.0,43,0.00,,,0.00,Wunderground v.1.15,2013-03-02 23:48:00,
2013-03-02 16:51:00,51.4,29.6,30.19,WSW,249,2.0,3.0,43,0.00,,,0.00,Wunderground v.1.15,2013-03-02 23:51:00,
2013-03-02 16:52:00,51.4,29.6,30.19,WSW,239,0.0,3.0,43,0.00,,,0.00,Wunderground v.1.15,2013-03-02 23:52:00,
2013-03-02 16:53:00,51.4,29.6,30.19,WSW,239,0.0,3.0,43,0.00,,,0.00,Wunderground v.1.15,2013-03-02 23:53:00,
2013-03-02 16:54:00,51.3,29.5,30.19,WSW,239,0.0,3.0,43,0.00,,,0.00,Wunderground v.1.15,2013-03-02 23:54:00,
2013-03-02 16:57:00,51.1,29.9,30.19,WSW,252,0.0,3.0,44,0.00,,,0.00,Wunderground v.1.15,2013-03-02 23:57:00,
2013-03-02 16:58:00,51.0,29.8,30.19,WSW,251,0.0,3.0,44,0.00,,,0.00,Wunderground v.1.15,2013-03-02 23:58:00,
2013-03-02 16:59:00,50.9,29.7,30.19,SSW,211,1.0,3.0,44,0.00,,,0.00,Wunderground v.1.15,2013-03-02 23:59:00,
2013-03-02 17:02:00,50.8,29.6,30.19,SSW,197,2.0,2.0,44,0.00,,,0.00,Wunderground v.1.15,2013-03-03 00:02:00,
2013-03-02 17:03:00,50.9,30.3,30.19,South,190,3.0,3.0,45,0.00,,,0.00,Wunderground v.1.15,2013-03-03 00:03:00,
2013-03-02 17:04:00,50.8,30.2,30.19,SSW,192,3.0,3.0,45,0.00,,,0.00,Wunderground v.1.15,2013-03-03 00:04:00,
2013-03-02 17:07:00,50.8,29.6,30.19,SW,236,1.0,3.0,44,0.00,,,0.00,Wunderground v.1.15,2013-03-03 00:07:00,
2013-03-02 17:08:00,50.8,30.2,30.19,SW,236,0.0,3.0,45,0.00,,,0.00,Wunderground v.1.15,2013-03-03 00:08:00,
2013-03-02 17:09:00,50.7,30.7,30.19,WSW,240,1.0,3.0,46,0.00,,,0.00,Wunderground v.1.15,2013-03-03 00:09:00,
2013-03-02 17:12:00,50.4,30.4,30.19,WSW,240,0.0,2.0,46,0.00,,,0.00,Wunderground v.1.15,2013-03-03 00:12:00,
2013-03-02 17:13:00,50.3,30.3,30.19,WSW,240,0.0,2.0,46,0.00,,,0.00,Wunderground v.1.15,2013-03-03 00:13:00,
2013-03-02 17:14:00,50.1,30.1,30.19,WSW,240,0.0,2.0,46,0.00,,,0.00,Wunderground v.1.15,2013-03-03 00:14:00,
2013-03-02 17:17:00,49.9,29.9,30.19,SW,228,1.0,2.0,46,0.00,,,0.00,Wunderground v.1.15,2013-03-03 00:17:00,
2013-03-02 17:18:00,49.7,29.7,30.19,SW,228,1.0,2.0,46,0.00,,,0.00,Wunderground v.1.15,2013-03-03 00:18:00,
2013-03-02 17:19:00,49.7,29.7,30.19,SW,228,0.0,2.0,46,0.00,,,0.00,Wunderground v.1.15,2013-03-03 00:19:00,
2013-03-02 17:22:00,49.3,29.4,30.19,SSE,159,2.0,3.0,46,0.00,,,0.00,Wunderground v.1.15,2013-03-03 00:22:00,
2013-03-02 17:23:00,49.3,29.9,30.19,WSW,240,1.0,3.0,47,0.00,,,0.00,Wunderground v.1.15,2013-03-03 00:23:00,
2013-03-02 17:24:00,49.2,29.8,30.19,WSW,240,0.0,3.0,47,0.00,,,0.00,Wunderground v.1.15,2013-03-03 00:24:00,
2013-03-02 17:27:00,48.8,30.0,30.19,WSW,253,2.0,3.0,48,0.00,,,0.00,Wunderground v.1.15,2013-03-03 00:27:00,
2013-03-02 17:28:00,48.7,29.4,30.19,West,260,2.0,3.0,47,0.00,,,0.00,Wunderground v.1.15,2013-03-03 00:28:00,
2013-03-02 17:29:00,48.7,29.4,30.19,WSW,249,1.0,3.0,47,0.00,,,0.00,Wunderground v.1.15,2013-03-03 00:29:00,
2013-03-02 17:32:00,48.5,30.2,30.19,West,259,1.0,2.0,49,0.00,,,0.00,Wunderground v.1.15,2013-03-03 00:32:00,
2013-03-02 17:33:00,48.5,30.2,30.19,WSW,257,1.0,2.0,49,0.00,,,0.00,Wunderground v.1.15,2013-03-03 00:33:00,
2013-03-02 17:34:00,48.4,30.1,30.19,WSW,252,1.0,2.0,49,0.00,,,0.00,Wunderground v.1.15,2013-03-03 00:34:00,
2013-03-02 17:35:00,48.3,30.0,30.19,WSW,253,1.0,2.0,49,0.00,,,0.00,Wunderground v.1.15,2013-03-03 00:35:00,
2013-03-02 17:37:00,48.0,29.7,30.19,WSW,256,3.0,3.0,49,0.00,,,0.00,Wunderground v.1.15,2013-03-03 00:37:00,
2013-03-02 17:38:00,48.0,29.7,30.19,WSW,255,3.0,3.0,49,0.00,,,0.00,Wunderground v.1.15,2013-03-03 00:38:00,
2013-03-02 17:39:00,48.0,29.7,30.19,West,259,3.0,3.0,49,0.00,,,0.00,Wunderground v.1.15,2013-03-03 00:39:00,
2013-03-02 17:40:00,48.0,29.2,30.19,WSW,256,3.0,3.0,48,0.00,,,0.00,Wunderground v.1.15,2013-03-03 00:40:00,
2013-03-02 17:42:00,47.9,29.6,30.19,WSW,248,3.0,3.0,49,0.00,,,0.00,Wunderground v.1.15,2013-03-03 00:42:00,
2013-03-02 17:43:00,47.9,29.6,30.19,WSW,256,3.0,3.0,49,0.00,,,0.00,Wunderground v.1.15,2013-03-03 00:43:00,
2013-03-02 17:44:00,47.9,29.6,30.19,WSW,256,3.0,4.0,49,0.00,,,0.00,Wunderground v.1.15,2013-03-03 00:44:00,
2013-03-02 17:45:00,47.8,29.5,30.19,WSW,252,3.0,4.0,49,0.00,,,0.00,Wunderground v.1.15,2013-03-03 00:45:00,
2013-03-02 17:47:00,47.6,29.9,30.19,WSW,255,4.0,4.0,50,0.00,,,0.00,Wunderground v.1.15,2013-03-03 00:47:00,
2013-03-02 17:48:00,47.5,29.8,30.19,WSW,253,4.0,4.0,50,0.00,,,0.00,Wunderground v.1.15,2013-03-03 00:48:00,
2013-03-02 17:49:00,47.5,29.8,30.19,WSW,249,3.0,4.0,50,0.00,,,0.00,Wunderground v.1.15,2013-03-03 00:49:00,
2013-03-02 17:50:00,47.3,29.6,30.19,WSW,243,3.0,4.0,50,0.00,,,0.00,Wunderground v.1.15,2013-03-03 00:50:00,
2013-03-02 17:52:00,47.2,29.5,30.19,SW,233,3.0,4.0,50,0.00,,,0.00,Wunderground v.1.15,2013-03-03 00:52:00,
2013-03-02 17:53:00,47.1,29.9,30.19,SW,233,3.0,4.0,51,0.00,,,0.00,Wunderground v.1.15,2013-03-03 00:53:00,
2013-03-02 17:54:00,46.9,29.7,30.19,SW,236,2.0,4.0,51,0.00,,,0.00,Wunderground v.1.15,2013-03-03 00:54:00,
2013-03-02 17:55:00,46.7,29.5,30.19,WSW,250,3.0,4.0,51,0.00,,,0.00,Wunderground v.1.15,2013-03-03 00:55:00,
2013-03-02 17:58:00,46.2,30.5,30.19,WSW,248,4.0,5.0,54,0.00,,,0.00,Wunderground v.1.15,2013-03-03 00:58:00,
2013-03-02 18:00:00,46.1,30.4,30.19,WSW,248,4.0,4.0,54,0.00,,,0.00,Wunderground v.1.15,2013-03-03 01:00:00,
2013-03-02 18:03:00,45.8,30.5,30.19,SW,228,3.0,4.0,55,0.00,,,0.00,Wunderground v.1.15,2013-03-03 01:03:00,
2013-03-02 18:05:00,45.7,30.0,30.19,SW,228,4.0,5.0,54,0.00,,,0.00,Wunderground v.1.15,2013-03-03 01:05:00,
2013-03-02 18:08:00,45.4,29.7,30.19,SW,231,4.0,5.0,54,0.00,,,0.00,Wunderground v.1.15,2013-03-03 01:08:00,
2013-03-02 18:10:00,45.3,29.6,30.19,SW,217,3.0,4.0,54,0.00,,,0.00,Wunderground v.1.15,2013-03-03 01:10:00,
2013-03-02 18:13:00,44.9,30.1,30.19,SSW,193,3.0,4.0,56,0.00,,,0.00,Wunderground v.1.15,2013-03-03 01:13:00,
2013-03-02 18:15:00,44.9,30.1,30.19,SSW,193,3.0,4.0,56,0.00,,,0.00,Wunderground v.1.15,2013-03-03 01:15:00,
2013-03-02 18:18:00,44.7,30.4,30.18,SSW,210,5.0,6.0,57,0.00,,,0.00,Wunderground v.1.15,2013-03-03 01:18:00,
2013-03-02 18:20:00,44.4,30.5,30.18,SSW,207,5.0,5.0,58,0.00,,,0.00,Wunderground v.1.15,2013-03-03 01:20:00,
2013-03-02 18:23:00,44.0,29.3,30.18,SW,230,4.0,5.0,56,0.00,,,0.00,Wunderground v.1.15,2013-03-03 01:23:00,
2013-03-02 18:25:00,43.9,29.2,30.18,SSW,207,3.0,5.0,56,0.00,,,0.00,Wunderground v.1.15,2013-03-03 01:25:00,
2013-03-02 18:28:00,43.8,29.5,30.19,SSW,212,4.0,5.0,57,0.00,,,0.00,Wunderground v.1.15,2013-03-03 01:28:00,
2013-03-02 18:30:00,43.7,29.5,30.19,SW,228,3.0,4.0,57,0.00,,,0.00,Wunderground v.1.15,2013-03-03 01:30:00,
2013-03-02 18:33:00,43.7,29.0,30.19,SW,222,3.0,5.0,56,0.00,,,0.00,Wunderground v.1.15,2013-03-03 01:33:00,
2013-03-02 18:34:00,43.7,29.0,30.19,SW,230,3.0,5.0,56,0.00,,,0.00,Wunderground v.1.15,2013-03-03 01:34:00,
2013-03-02 18:35:00,43.8,29.1,30.19,SW,217,4.0,5.0,56,0.00,,,0.00,Wunderground v.1.15,2013-03-03 01:35:00,
2013-03-02 18:36:00,43.8,29.1,30.19,SW,223,4.0,5.0,56,0.00,,,0.00,Wunderground v.1.15,2013-03-03 01:36:00,
2013-03-02 18:39:00,43.8,30.0,30.18,SSW,205,4.0,6.0,58,0.00,,,0.00,Wunderground v.1.15,2013-03-03 01:39:00,
2013-03-02 18:40:00,43.7,29.9,30.19,SSW,207,3.0,4.0,58,0.00,,,0.00,Wunderground v.1.15,2013-03-03 01:40:00,
2013-03-02 18:41:00,43.7,29.5,30.19,South,189,3.0,4.0,57,0.00,,,0.00,Wunderground v.1.15,2013-03-03 01:41:00,
2013-03-02 18:44:00,43.6,29.4,30.19,SW,222,4.0,5.0,57,0.00,,,0.00,Wunderground v.1.15,2013-03-03 01:44:00,
2013-03-02 18:45:00,43.5,30.1,30.19,South,190,3.0,5.0,59,0.00,,,0.00,Wunderground v.1.15,2013-03-03 01:45:00,
2013-03-02 18:46:00,43.6,29.8,30.19,SSW,208,3.0,5.0,58,0.00,,,0.00,Wunderground v.1.15,2013-03-03 01:46:00,
2013-03-02 18:49:00,43.7,29.0,30.19,WSW,243,4.0,5.0,56,0.00,,,0.00,Wunderground v.1.15,2013-03-03 01:49:00,
2013-03-02 18:50:00,43.8,29.1,30.19,WSW,255,4.0,5.0,56,0.00,,,0.00,Wunderground v.1.15,2013-03-03 01:50:00,
2013-03-02 18:51:00,43.8,29.1,30.19,West,259,4.0,5.0,56,0.00,,,0.00,Wunderground v.1.15,2013-03-03 01:51:00,
2013-03-02 18:54:00,43.9,29.2,30.19,WSW,250,5.0,5.0,56,0.00,,,0.00,Wunderground v.1.15,2013-03-03 01:54:00,
2013-03-02 18:55:00,43.7,29.0,30.19,SW,214,5.0,6.0,56,0.00,,,0.00,Wunderground v.1.15,2013-03-03 01:55:00,
2013-03-02 18:56:00,43.6,29.4,30.19,SSW,194,3.0,6.0,57,0.00,,,0.00,Wunderground v.1.15,2013-03-03 01:56:00,
2013-03-02 18:59:00,43.5,29.3,30.19,SW,231,2.0,6.0,57,0.00,,,0.00,Wunderground v.1.15,2013-03-03 01:59:00,
2013-03-02 19:00:00,43.4,29.6,30.19,SW,233,1.0,4.0,58,0.00,,,0.00,Wunderground v.1.15,2013-03-03 02:00:00,
2013-03-02 19:01:00,43.2,29.4,30.18,WSW,252,3.0,4.0,58,0.00,,,0.00,Wunderground v.1.15,2013-03-03 02:01:00,
2013-03-02 19:04:00,42.8,29.0,30.18,WSW,243,4.0,7.0,58,0.00,,,0.00,Wunderground v.1.15,2013-03-03 02:04:00,
2013-03-02 19:06:00,42.7,28.9,30.18,SW,217,3.0,7.0,58,0.00,,,0.00,Wunderground v.1.15,2013-03-03 02:06:00,
2013-03-02 19:09:00,42.4,29.1,30.18,WSW,248,5.0,7.0,59,0.00,,,0.00,Wunderground v.1.15,2013-03-03 02:09:00,
2013-03-02 19:11:00,42.1,28.8,30.18,SW,233,4.0,5.0,59,0.00,,,0.00,Wunderground v.1.15,2013-03-03 02:11:00,
2013-03-02 19:14:00,42.3,29.0,30.18,SW,222,5.0,5.0,59,0.00,,,0.00,Wunderground v.1.15,2013-03-03 02:14:00,
2013-03-02 19:16:00,42.5,28.8,30.17,SW,214,3.0,6.0,58,0.00,,,0.00,Wunderground v.1.15,2013-03-03 02:16:00,
2013-03-02 19:17:00,42.5,28.8,30.17,SW,236,5.0,6.0,58,0.00,,,0.00,Wunderground v.1.15,2013-03-03 02:17:00,
2013-03-02 19:19:00,42.5,28.8,30.18,WSW,250,3.0,6.0,58,0.00,,,0.00,Wunderground v.1.15,2013-03-03 02:19:00,
2013-03-02 19:20:00,42.5,28.8,30.18,West,262,5.0,5.0,58,0.00,,,0.00,Wunderground v.1.15,2013-03-03 02:20:00,
2013-03-02 19:21:00,42.5,28.8,30.18,SW,231,4.0,6.0,58,0.00,,,0.00,Wunderground v.1.15,2013-03-03 02:21:00,
2013-03-02 19:22:00,42.5,29.2,30.18,SSW,200,2.0,6.0,59,0.00,,,0.00,Wunderground v.1.15,2013-03-03 02:22:00,
2013-03-02 19:25:00,42.6,28.8,30.18,WSW,256,6.0,6.0,58,0.00,,,0.00,Wunderground v.1.15,2013-03-03 02:25:00,
2013-03-02 19:27:00,42.8,29.0,30.18,South,190,4.0,6.0,58,0.00,,,0.00,Wunderground v.1.15,2013-03-03 02:27:00,
2013-03-02 19:30:00,43.0,29.6,30.17,SSW,203,5.0,6.0,59,0.00,,,0.00,Wunderground v.1.15,2013-03-03 02:30:00,
2013-03-02 19:32:00,42.9,30.0,30.17,WSW,243,5.0,6.0,60,0.00,,,0.00,Wunderground v.1.15,2013-03-03 02:32:00,
2013-03-02 19:33:00,43.0,29.2,30.17,SW,232,3.0,6.0,58,0.00,,,0.00,Wunderground v.1.15,2013-03-03 02:33:00,
2013-03-02 19:35:00,42.9,29.1,30.17,SW,233,2.0,6.0,58,0.00,,,0.00,Wunderground v.1.15,2013-03-03 02:35:00,
2013-03-02 19:37:00,42.9,30.0,30.17,SSW,212,2.0,6.0,60,0.00,,,0.00,Wunderground v.1.15,2013-03-03 02:37:00,
2013-03-02 19:38:00,42.8,29.9,30.17,SSW,212,4.0,6.0,60,0.00,,,0.00,Wunderground v.1.15,2013-03-03 02:38:00,
2013-03-02 19:40:00,42.7,29.4,30.17,WSW,246,5.0,7.0,59,0.00,,,0.00,Wunderground v.1.15,2013-03-03 02:40:00,
2013-03-02 19:42:00,42.5,29.2,30.17,SW,236,5.0,7.0,59,0.00,,,0.00,Wunderground v.1.15,2013-03-03 02:42:00,
2013-03-02 19:43:00,42.4,29.1,30.17,WSW,249,6.0,7.0,59,0.00,,,0.00,Wunderground v.1.15,2013-03-03 02:43:00,
2013-03-02 19:45:00,42.2,28.9,30.16,WSW,238,5.0,7.0,59,0.00,,,0.00,Wunderground v.1.15,2013-03-03 02:45:00,
2013-03-02 19:47:00,42.5,29.2,30.16,WSW,243,4.0,7.0,59,0.00,,,0.00,Wunderground v.1.15,2013-03-03 02:47:00,
2013-03-02 19:48:00,42.7,28.9,30.16,WSW,256,6.0,7.0,58,0.00,,,0.00,Wunderground v.1.15,2013-03-03 02:48:00,
2013-03-02 19:50:00,42.8,29.0,30.16,West,269,4.0,5.0,58,0.00,,,0.00,Wunderground v.1.15,2013-03-03 02:50:00,
2013-03-02 19:51:00,42.8,29.0,30.16,WSW,246,3.0,5.0,58,0.00,,,0.00,Wunderground v.1.15,2013-03-03 02:51:00,
2013-03-02 19:52:00,42.7,28.9,30.16,SSW,201,5.0,6.0,58,0.00,,,0.00,Wunderground v.1.15,2013-03-03 02:52:00,
2013-03-02 19:53:00,42.7,29.4,30.16,SSW,198,4.0,6.0,59,0.00,,,0.00,Wunderground v.1.15,2013-03-03 02:53:00,
2013-03-02 19:55:00,42.6,29.3,30.16,SW,231,3.0,6.0,59,0.00,,,0.00,Wunderground v.1.15,2013-03-03 02:55:00,
2013-03-02 19:56:00,42.6,29.3,30.16,SW,223,4.0,6.0,59,0.00,,,0.00,Wunderground v.1.15,2013-03-03 02:56:00,
2013-03-02 19:57:00,42.5,28.8,30.16,SSW,210,4.0,6.0,58,0.00,,,0.00,Wunderground v.1.15,2013-03-03 02:57:00,
2013-03-02 19:59:00,42.5,28.8,30.16,SW,219,4.0,6.0,58,0.00,,,0.00,Wunderground v.1.15,2013-03-03 02:59:00,
2013-03-02 20:00:00,42.5,29.6,30.16,SSW,201,4.0,4.0,60,0.00,,,0.00,Wunderground v.1.15,2013-03-03 03:00:00,
2013-03-02 20:01:00,42.4,29.5,30.16,SW,228,4.0,5.0,60,0.00,,,0.00,Wunderground v.1.15,2013-03-03 03:01:00,
2013-03-02 20:02:00,42.4,29.9,30.16,South,191,2.0,5.0,61,0.00,,,0.00,Wunderground v.1.15,2013-03-03 03:02:00,
2013-03-02 20:04:00,42.2,29.7,30.16,SSW,200,3.0,5.0,61,0.00,,,0.00,Wunderground v.1.15,2013-03-03 03:04:00,
2013-03-02 20:05:00,42.2,29.7,30.16,SSW,200,3.0,5.0,61,0.00,,,0.00,Wunderground v.1.15,2013-03-03 03:05:00,
2013-03-02 20:06:00,42.2,29.3,30.16,SSE,160,2.0,5.0,60,0.00,,,0.00,Wunderground v.1.15,2013-03-03 03:06:00,
2013-03-02 20:07:00,42.1,29.6,30.16,South,172,4.0,5.0,61,0.00,,,0.00,Wunderground v.1.15,2013-03-03 03:07:00,
2013-03-02 20:09:00,42.1,29.2,30.16,South,179,4.0,5.0,60,0.00,,,0.00,Wunderground v.1.15,2013-03-03 03:09:00,
2013-03-02 20:10:00,42.1,29.2,30.16,SSW,197,4.0,5.0,60,0.00,,,0.00,Wunderground v.1.15,2013-03-03 03:10:00,
2013-03-02 20:11:00,42.1,29.6,30.16,SW,217,4.0,5.0,61,0.00,,,0.00,Wunderground v.1.15,2013-03-03 03:11:00,
2013-03-02 20:12:00,42.1,29.6,30.16,South,177,4.0,5.0,61,0.00,,,0.00,Wunderground v.1.15,2013-03-03 03:12:00,
2013-03-02 20:15:00,42.0,29.9,30.16,SW,228,4.0,5.0,62,0.00,,,0.00,Wunderground v.1.15,2013-03-03 03:15:00,
2013-03-02 20:16:00,41.8,30.1,30.16,SW,222,4.0,5.0,63,0.00,,,0.00,Wunderground v.1.15,2013-03-03 03:16:00,
2013-03-02 20:17:00,41.6,29.1,30.16,WSW,253,4.0,5.0,61,0.00,,,0.00,Wunderground v.1.15,2013-03-03 03:17:00,
2013-03-02 20:20:00,41.9,28.6,30.16,SW,215,3.0,4.0,59,0.00,,,0.00,Wunderground v.1.15,2013-03-03 03:20:00,
2013-03-02 20:21:00,42.0,29.1,30.16,WSW,238,5.0,5.0,60,0.00,,,0.00,Wunderground v.1.15,2013-03-03 03:21:00,
2013-03-02 20:22:00,42.0,28.7,30.16,SSW,212,3.0,6.0,59,0.00,,,0.00,Wunderground v.1.15,2013-03-03 03:22:00,
2013-03-02 20:25:00,42.0,28.7,30.16,WSW,245,4.0,6.0,59,0.00,,,0.00,Wunderground v.1.15,2013-03-03 03:25:00,
2013-03-02 20:26:00,42.0,28.3,30.16,SSW,210,3.0,6.0,58,0.00,,,0.00,Wunderground v.1.15,2013-03-03 03:26:00,
2013-03-02 20:27:00,42.0,28.3,30.16,SW,219,4.0,6.0,58,0.00,,,0.00,Wunderground v.1.15,2013-03-03 03:27:00,
2013-03-02 20:31:00,42.3,28.1,30.16,SSW,198,4.0,6.0,57,0.00,,,0.00,Wunderground v.1.15,2013-03-03 03:31:00,
2013-03-02 20:33:00,42.5,27.9,30.15,SW,231,4.0,6.0,56,0.00,,,0.00,Wunderground v.1.15,2013-03-03 03:33:00,
2013-03-02 20:36:00,43.1,28.0,30.15,WSW,252,5.0,6.0,55,0.00,,,0.00,Wunderground v.1.15,2013-03-03 03:36:00,
2013-03-02 20:37:00,43.2,28.1,30.15,WSW,240,5.0,6.0,55,0.00,,,0.00,Wunderground v.1.15,2013-03-03 03:37:00,
2013-03-02 20:38:00,43.1,28.0,30.15,WSW,249,5.0,6.0,55,0.00,,,0.00,Wunderground v.1.15,2013-03-03 03:38:00,
2013-03-02 20:41:00,42.6,28.0,30.15,WSW,257,5.0,7.0,56,0.00,,,0.00,Wunderground v.1.15,2013-03-03 03:41:00,
2013-03-02 20:42:00,42.6,28.0,30.15,WSW,257,6.0,7.0,56,0.00,,,0.00,Wunderground v.1.15,2013-03-03 03:42:00,
2013-03-02 20:43:00,42.5,27.9,30.15,WSW,253,6.0,7.0,56,0.00,,,0.00,Wunderground v.1.15,2013-03-03 03:43:00,
2013-03-02 20:46:00,42.4,28.2,30.15,SSW,204,4.0,7.0,57,0.00,,,0.00,Wunderground v.1.15,2013-03-03 03:46:00,
2013-03-02 20:47:00,42.4,28.2,30.15,SSW,205,4.0,7.0,57,0.00,,,0.00,Wunderground v.1.15,2013-03-03 03:47:00,
2013-03-02 20:48:00,42.5,27.9,30.15,SSW,210,3.0,7.0,56,0.00,,,0.00,Wunderground v.1.15,2013-03-03 03:48:00,
2013-03-02 20:51:00,42.6,28.0,30.15,SW,233,1.0,5.0,56,0.00,,,0.00,Wunderground v.1.15,2013-03-03 03:51:00,
2013-03-02 20:52:00,42.7,28.1,30.15,SW,231,1.0,5.0,56,0.00,,,0.00,Wunderground v.1.15,2013-03-03 03:52:00,
2013-03-02 20:53:00,42.6,28.4,30.15,SW,222,2.0,5.0,57,0.00,,,0.00,Wunderground v.1.15,2013-03-03 03:53:00,
2013-03-02 20:56:00,42.4,27.8,30.15,WSW,246,3.0,5.0,56,0.00,,,0.00,Wunderground v.1.15,2013-03-03 03:56:00,
2013-03-02 20:57:00,42.4,27.8,30.15,WSW,238,4.0,5.0,56,0.00,,,0.00,Wunderground v.1.15,2013-03-03 03:57:00,
2013-03-02 20:58:00,42.4,27.8,30.14,WSW,238,3.0,5.0,56,0.00,,,0.00,Wunderground v.1.15,2013-03-03 03:58:00,
2013-03-02 21:02:00,42.4,27.8,30.14,SW,233,3.0,4.0,56,0.00,,,0.00,Wunderground v.1.15,2013-03-03 04:02:00,
2013-03-02 21:03:00,42.3,28.1,30.14,SW,223,5.0,5.0,57,0.00,,,0.00,Wunderground v.1.15,2013-03-03 04:03:00,
2013-03-02 21:07:00,42.2,28.0,30.14,WSW,243,4.0,6.0,57,0.00,,,0.00,Wunderground v.1.15,2013-03-03 04:07:00,
2013-03-02 21:08:00,42.2,28.0,30.14,WSW,256,5.0,6.0,57,0.00,,,0.00,Wunderground v.1.15,2013-03-03 04:08:00,
2013-03-02 21:12:00,42.1,28.4,30.14,SSW,193,4.0,5.0,58,0.00,,,0.00,Wunderground v.1.15,2013-03-03 04:12:00,
2013-03-02 21:13:00,42.2,28.5,30.14,SSW,193,5.0,5.0,58,0.00,,,0.00,Wunderground v.1.15,2013-03-03 04:13:00,
2013-03-02 21:14:00,42.3,28.6,30.14,SW,228,3.0,6.0,58,0.00,,,0.00,Wunderground v.1.15,2013-03-03 04:14:00,
2013-03-02 21:17:00,42.1,27.9,30.14,West,281,3.0,6.0,57,0.00,,,0.00,Wunderground v.1.15,2013-03-03 04:17:00,
2013-03-02 21:18:00,42.0,28.3,30.14,West,264,2.0,6.0,58,0.00,,,0.00,Wunderground v.1.15,2013-03-03 04:18:00,
2013-03-02 21:19:00,42.0,27.9,30.14,West,262,4.0,6.0,57,0.00,,,0.00,Wunderground v.1.15,2013-03-03 04:19:00,
2013-03-02 21:22:00,42.0,27.4,30.13,WSW,240,4.0,5.0,56,0.00,,,0.00,Wunderground v.1.15,2013-03-03 04:22:00,
2013-03-02 21:23:00,42.1,27.5,30.13,SSW,207,3.0,5.0,56,0.00,,,0.00,Wunderground v.1.15,2013-03-03 04:23:00,
2013-03-02 21:24:00,42.2,28.0,30.13,South,191,4.0,5.0,57,0.00,,,0.00,Wunderground v.1.15,2013-03-03 04:24:00,
2013-03-02 21:27:00,42.2,27.6,30.13,SW,230,4.0,5.0,56,0.00,,,0.00,Wunderground v.1.15,2013-03-03 04:27:00,
2013-03-02 21:28:00,42.3,27.7,30.13,WSW,238,4.0,5.0,56,0.00,,,0.00,Wunderground v.1.15,2013-03-03 04:28:00,
2013-03-02 21:29:00,42.4,27.8,30.13,SW,225,3.0,5.0,56,0.00,,,0.00,Wunderground v.1.15,2013-03-03 04:29:00,
2013-03-02 21:32:00,42.3,27.7,30.13,West,262,5.0,6.0,56,0.00,,,0.00,Wunderground v.1.15,2013-03-03 04:32:00,
2013-03-02 21:33:00,42.2,27.6,30.13,WSW,240,5.0,6.0,56,0.00,,,0.00,Wunderground v.1.15,2013-03-03 04:33:00,
2013-03-02 21:34:00,42.1,27.9,30.13,SW,218,3.0,6.0,57,0.00,,,0.00,Wunderground v.1.15,2013-03-03 04:34:00,
2013-03-02 21:37:00,41.8,27.7,30.13,SW,233,6.0,6.0,57,0.00,,,0.00,Wunderground v.1.15,2013-03-03 04:37:00,
2013-03-02 21:38:00,41.7,27.6,30.13,WSW,241,3.0,6.0,57,0.00,,,0.00,Wunderground v.1.15,2013-03-03 04:38:00,
2013-03-02 21:39:00,41.7,27.6,30.13,WSW,252,5.0,6.0,57,0.00,,,0.00,Wunderground v.1.15,2013-03-03 04:39:00,
2013-03-02 21:42:00,41.7,27.6,30.13,WSW,244,4.0,5.0,57,0.00,,,0.00,Wunderground v.1.15,2013-03-03 04:42:00,
2013-03-02 21:43:00,41.6,27.9,30.13,SW,231,4.0,5.0,58,0.00,,,0.00,Wunderground v.1.15,2013-03-03 04:43:00,
2013-03-02 21:44:00,41.7,27.6,30.13,WSW,238,3.0,5.0,57,0.00,,,0.00,Wunderground v.1.15,2013-03-03 04:44:00,
2013-03-02 21:47:00,41.5,27.8,30.13,SW,233,1.0,5.0,58,0.00,,,0.00,Wunderground v.1.15,2013-03-03 04:47:00,
2013-03-02 21:48:00,41.4,27.7,30.13,SW,233,3.0,5.0,58,0.00,,,0.00,Wunderground v.1.15,2013-03-03 04:48:00,
2013-03-02 21:49:00,41.4,27.7,30.13,SSW,207,3.0,5.0,58,0.00,,,0.00,Wunderground v.1.15,2013-03-03 04:49:00,
2013-03-02 21:52:00,41.5,27.8,30.13,WSW,255,5.0,5.0,58,0.00,,,0.00,Wunderground v.1.15,2013-03-03 04:52:00,
2013-03-02 21:53:00,41.5,27.8,30.13,WSW,257,6.0,6.0,58,0.00,,,0.00,Wunderground v.1.15,2013-03-03 04:53:00,
2013-03-02 21:54:00,41.5,27.8,30.13,West,260,5.0,6.0,58,0.00,,,0.00,Wunderground v.1.15,2013-03-03 04:54:00,
2013-03-02 21:57:00,41.5,27.4,30.12,WSW,240,5.0,6.0,57,0.00,,,0.00,Wunderground v.1.15,2013-03-03 04:57:00,
2013-03-02 21:58:00,41.7,27.6,30.12,WSW,244,3.0,6.0,57,0.00,,,0.00,Wunderground v.1.15,2013-03-03 04:58:00,
2013-03-02 21:59:00,41.7,27.6,30.12,WSW,255,2.0,6.0,57,0.00,,,0.00,Wunderground v.1.15,2013-03-03 04:59:00,
2013-03-02 22:00:00,41.7,28.0,30.12,SW,226,2.0,4.0,58,0.00,,,0.00,Wunderground v.1.15,2013-03-03 05:00:00,
2013-03-02 22:05:00,41.6,27.5,30.12,SSW,212,2.0,5.0,57,0.00,,,0.00,Wunderground v.1.15,2013-03-03 05:05:00,
2013-03-02 22:10:00,41.5,27.8,30.12,WSW,240,3.0,4.0,58,0.00,,,0.00,Wunderground v.1.15,2013-03-03 05:10:00,
2013-03-02 22:15:00,41.9,27.3,30.12,WSW,248,2.0,4.0,56,0.00,,,0.00,Wunderground v.1.15,2013-03-03 05:15:00,
2013-03-02 22:16:00,41.9,27.3,30.12,WSW,244,3.0,4.0,56,0.00,,,0.00,Wunderground v.1.15,2013-03-03 05:16:00,
2013-03-02 22:20:00,41.8,27.7,30.11,SW,219,4.0,6.0,57,0.00,,,0.00,Wunderground v.1.15,2013-03-03 05:20:00,
2013-03-02 22:21:00,41.8,27.7,30.11,SW,235,5.0,6.0,57,0.00,,,0.00,Wunderground v.1.15,2013-03-03 05:21:00,
2013-03-02 22:25:00,41.0,27.8,30.11,WSW,256,5.0,6.0,59,0.00,,,0.00,Wunderground v.1.15,2013-03-03 05:25:00,
2013-03-02 22:26:00,41.0,27.8,30.11,WSW,250,4.0,6.0,59,0.00,,,0.00,Wunderground v.1.15,2013-03-03 05:26:00,
2013-03-02 22:30:00,41.1,27.9,30.11,SW,221,2.0,4.0,59,0.00,,,0.00,Wunderground v.1.15,2013-03-03 05:30:00,
2013-03-02 22:31:00,41.1,27.4,30.11,WSW,245,4.0,4.0,58,0.00,,,0.00,Wunderground v.1.15,2013-03-03 05:31:00,
2013-03-02 22:35:00,41.5,27.8,30.10,WSW,250,4.0,4.0,58,0.00,,,0.00,Wunderground v.1.15,2013-03-03 05:35:00,
2013-03-02 22:36:00,41.5,27.8,30.10,WSW,253,4.0,4.0,58,0.00,,,0.00,Wunderground v.1.15,2013-03-03 05:36:00,
2013-03-02 22:41:00,41.0,27.8,30.10,SW,225,4.0,4.0,59,0.00,,,0.00,Wunderground v.1.15,2013-03-03 05:41:00,
2013-03-02 22:46:00,40.9,28.5,30.09,SSW,200,4.0,4.0,61,0.00,,,0.00,Wunderground v.1.15,2013-03-03 05:46:00,
2013-03-02 22:51:00,40.7,27.5,30.09,SW,236,2.0,5.0,59,0.00,,,0.00,Wunderground v.1.15,2013-03-03 05:51:00,
2013-03-02 22:56:00,41.3,27.6,30.09,SW,236,2.0,5.0,58,0.00,,,0.00,Wunderground v.1.15,2013-03-03 05:56:00,
2013-03-02 23:01:00,41.3,28.4,30.08,SSE,156,4.0,5.0,60,0.00,,,0.00,Wunderground v.1.15,2013-03-03 06:01:00,
2013-03-02 23:02:00,41.2,28.8,30.08,SSW,197,5.0,5.0,61,0.00,,,0.00,Wunderground v.1.15,2013-03-03 06:02:00,
2013-03-02 23:06:00,41.2,27.5,30.08,SSE,158,3.0,6.0,58,0.00,,,0.00,Wunderground v.1.15,2013-03-03 06:06:00,
2013-03-02 23:07:00,41.2,28.4,30.08,SSW,205,4.0,6.0,60,0.00,,,0.00,Wunderground v.1.15,2013-03-03 06:07:00,
2013-03-02 23:11:00,40.9,27.2,30.08,West,259,7.0,8.0,58,0.00,,,0.00,Wunderground v.1.15,2013-03-03 06:11:00,
2013-03-02 23:12:00,40.9,27.7,30.08,WSW,257,6.0,8.0,59,0.00,,,0.00,Wunderground v.1.15,2013-03-03 06:12:00,
2013-03-02 23:16:00,41.5,27.0,30.08,SW,222,4.0,8.0,56,0.00,,,0.00,Wunderground v.1.15,2013-03-03 06:16:00,
2013-03-02 23:17:00,41.7,26.7,30.08,SW,235,3.0,8.0,55,0.00,,,0.00,Wunderground v.1.15,2013-03-03 06:17:00,
2013-03-02 23:21:00,42.0,27.4,30.08,WSW,257,4.0,5.0,56,0.00,,,0.00,Wunderground v.1.15,2013-03-03 06:21:00,
2013-03-02 23:22:00,42.0,27.4,30.08,West,259,3.0,5.0,56,0.00,,,0.00,Wunderground v.1.15,2013-03-03 06:22:00,
2013-03-02 23:23:00,42.0,27.4,30.08,SW,222,3.0,5.0,56,0.00,,,0.00,Wunderground v.1.15,2013-03-03 06:23:00,
2013-03-02 23:26:00,41.7,28.0,30.07,South,190,4.0,5.0,58,0.00,,,0.00,Wunderground v.1.15,2013-03-03 06:26:00,
2013-03-02 23:27:00,41.6,27.5,30.07,SSE,158,2.0,5.0,57,0.00,,,0.00,Wunderground v.1.15,2013-03-03 06:27:00,
2013-03-02 23:28:00,41.6,27.9,30.07,South,172,4.0,5.0,58,0.00,,,0.00,Wunderground v.1.15,2013-03-03 06:28:00,
2013-03-02 23:31:00,41.6,27.9,30.07,South,190,2.0,4.0,58,0.00,,,0.00,Wunderground v.1.15,2013-03-03 06:31:00,
2013-03-02 23:32:00,41.6,27.9,30.06,SSW,210,3.0,4.0,58,0.00,,,0.00,Wunderground v.1.15,2013-03-03 06:32:00,
2013-03-02 23:33:00,41.5,27.8,30.06,SW,224,4.0,4.0,58,0.00,,,0.00,Wunderground v.1.15,2013-03-03 06:33:00,
2013-03-02 23:36:00,41.3,28.0,30.06,SW,223,4.0,5.0,59,0.00,,,0.00,Wunderground v.1.15,2013-03-03 06:36:00,
2013-03-02 23:37:00,41.3,27.6,30.06,SW,217,4.0,5.0,58,0.00,,,0.00,Wunderground v.1.15,2013-03-03 06:37:00,
2013-03-02 23:38:00,41.3,27.2,30.06,SW,214,2.0,5.0,57,0.00,,,0.00,Wunderground v.1.15,2013-03-03 06:38:00,
2013-03-02 23:41:00,41.2,27.1,30.06,SW,228,3.0,5.0,57,0.00,,,0.00,Wunderground v.1.15,2013-03-03 06:41:00,
2013-03-02 23:42:00,41.1,27.0,30.06,WSW,240,3.0,5.0,57,0.00,,,0.00,Wunderground v.1.15,2013-03-03 06:42:00,
2013-03-02 23:43:00,41.1,27.0,30.06,WSW,238,3.0,5.0,57,0.00,,,0.00,Wunderground v.1.15,2013-03-03 06:43:00,
2013-03-02 23:47:00,40.7,27.1,30.06,West,267,5.0,7.0,58,0.00,,,0.00,Wunderground v.1.15,2013-03-03 06:47:00,
2013-03-02 23:48:00,40.7,27.1,30.05,WSW,252,5.0,7.0,58,0.00,,,0.00,Wunderground v.1.15,2013-03-03 06:48:00,
2013-03-02 23:49:00,40.7,27.1,30.05,West,259,5.0,7.0,58,0.00,,,0.00,Wunderground v.1.15,2013-03-03 06:49:00,
2013-03-02 23:52:00,41.0,27.3,30.05,SW,217,4.0,6.0,58,0.00,,,0.00,Wunderground v.1.15,2013-03-03 06:52:00,
2013-03-02 23:53:00,41.1,27.4,30.05,West,264,4.0,6.0,58,0.00,,,0.00,Wunderground v.1.15,2013-03-03 06:53:00,
2013-03-02 23:54:00,41.1,27.4,30.05,SW,228,3.0,6.0,58,0.00,,,0.00,Wunderground v.1.15,2013-03-03 06:54:00,
2013-03-02 23:57:00,40.9,28.1,30.04,SSW,203,4.0,6.0,60,0.00,,,0.00,Wunderground v.1.15,2013-03-03 06:57:00,
2013-03-02 23:58:00,40.8,28.4,30.04,WSW,252,4.0,6.0,61,0.00,,,0.00,Wunderground v.1.15,2013-03-03 06:58:00,
2013-03-02 23:59:00,40.8,27.6,30.04,West,259,4.0,6.0,59,0.00,,,0.00,Wunderground v.1.15,2013-03-03 06:59:00,